<?xml version='1.0' encoding='UTF-8'?><gpx version="1.1" creator="JPX - https://github.com/jenetics/jpx" xmlns="http://www.topografix.com/GPX/1/1"><trk><trkseg><trkpt lat="40.7908791" lon="17.1064237"><ele>372.0</ele><time>2026-03-23T08:36:23.661Z</time></trkpt><trkpt lat="40.7908145" lon="17.1064424"><ele>372.0</ele><time>2026-03-23T08:36:32.666Z</time></trkpt><trkpt lat="40.7907614" lon="17.1065264"><ele>372.0</ele><time>2026-03-23T08:36:35.673Z</time></trkpt><trkpt lat="40.7907417" lon="17.1066364"><ele>372.0</ele><time>2026-03-23T08:36:38.665Z</time></trkpt><trkpt lat="40.7907102" lon="17.106735"><ele>372.0</ele><time>2026-03-23T08:36:41.681Z</time></trkpt><trkpt lat="40.7906954" lon="17.1068308"><ele>372.0</ele><time>2026-03-23T08:36:44.677Z</time></trkpt><trkpt lat="40.7907065" lon="17.1069149"><ele>372.1666666666667</ele><time>2026-03-23T08:37:53.676Z</time></trkpt><trkpt lat="40.7907597" lon="17.1069629"><ele>372.3333333333333</ele><time>2026-03-23T08:38:27.676Z</time></trkpt><trkpt lat="40.7907799" lon="17.1068699"><ele>372.5</ele><time>2026-03-23T08:38:32.674Z</time></trkpt><trkpt lat="40.790723" lon="17.1068116"><ele>372.66666666666663</ele><time>2026-03-23T08:38:35.678Z</time></trkpt><trkpt lat="40.7906489" lon="17.1068427"><ele>372.8333333333333</ele><time>2026-03-23T08:38:37.676Z</time></trkpt><trkpt lat="40.79059" lon="17.1069462"><ele>373.0</ele><time>2026-03-23T08:38:39.681Z</time></trkpt><trkpt lat="40.7905429" lon="17.107027"><ele>373.0</ele><time>2026-03-23T08:38:41.685Z</time></trkpt><trkpt lat="40.7904955" lon="17.1070993"><ele>373.0</ele><time>2026-03-23T08:38:43.678Z</time></trkpt><trkpt lat="40.7904348" lon="17.1071606"><ele>373.0</ele><time>2026-03-23T08:38:46.671Z</time></trkpt><trkpt lat="40.7904101" lon="17.1072452"><ele>373.0</ele><time>2026-03-23T08:39:05.673Z</time></trkpt><trkpt lat="40.7903844" lon="17.1073231"><ele>373.0</ele><time>2026-03-23T08:39:11.704Z</time></trkpt><trkpt lat="40.7904455" lon="17.1074094"><ele>373.0</ele><time>2026-03-23T08:39:14.681Z</time></trkpt><trkpt lat="40.7905094" lon="17.1074761"><ele>372.2</ele><time>2026-03-23T08:39:16.699Z</time></trkpt><trkpt lat="40.7905515" lon="17.10754"><ele>371.4</ele><time>2026-03-23T08:39:18.68Z</time></trkpt><trkpt lat="40.7905956" lon="17.1076503"><ele>370.59999999999997</ele><time>2026-03-23T08:39:21.687Z</time></trkpt><trkpt lat="40.7906343" lon="17.107777"><ele>369.79999999999995</ele><time>2026-03-23T08:39:23.697Z</time></trkpt><trkpt lat="40.7906814" lon="17.1079075"><ele>369.0</ele><time>2026-03-23T08:39:25.681Z</time></trkpt><trkpt lat="40.7907376" lon="17.1080401"><ele>369.0</ele><time>2026-03-23T08:39:27.681Z</time></trkpt><trkpt lat="40.7907906" lon="17.1081792"><ele>369.0</ele><time>2026-03-23T08:39:29.675Z</time></trkpt><trkpt lat="40.7908406" lon="17.1083242"><ele>369.0</ele><time>2026-03-23T08:39:31.68Z</time></trkpt><trkpt lat="40.7908648" lon="17.1084025"><ele>369.0</ele><time>2026-03-23T08:39:32.686Z</time></trkpt><trkpt lat="40.7908936" lon="17.1084788"><ele>369.0</ele><time>2026-03-23T08:39:33.669Z</time></trkpt><trkpt lat="40.7909161" lon="17.1085567"><ele>369.0</ele><time>2026-03-23T08:39:34.714Z</time></trkpt><trkpt lat="40.7909351" lon="17.1086367"><ele>369.4</ele><time>2026-03-23T08:39:35.681Z</time></trkpt><trkpt lat="40.7909609" lon="17.1087961"><ele>369.79999999999995</ele><time>2026-03-23T08:39:37.674Z</time></trkpt><trkpt lat="40.7909907" lon="17.1089474"><ele>370.20000000000005</ele><time>2026-03-23T08:39:39.676Z</time></trkpt><trkpt lat="40.791011" lon="17.1090784"><ele>370.6</ele><time>2026-03-23T08:39:41.684Z</time></trkpt><trkpt lat="40.7910336" lon="17.1091821"><ele>371.0</ele><time>2026-03-23T08:39:43.667Z</time></trkpt><trkpt lat="40.7910499" lon="17.1092791"><ele>371.0</ele><time>2026-03-23T08:39:45.677Z</time></trkpt><trkpt lat="40.7910734" lon="17.1093692"><ele>371.0</ele><time>2026-03-23T08:39:47.683Z</time></trkpt><trkpt lat="40.7911022" lon="17.109456"><ele>371.0</ele><time>2026-03-23T08:39:49.684Z</time></trkpt><trkpt lat="40.7911226" lon="17.1095483"><ele>371.0</ele><time>2026-03-23T08:39:51.703Z</time></trkpt><trkpt lat="40.7911472" lon="17.1096276"><ele>371.0</ele><time>2026-03-23T08:39:53.679Z</time></trkpt><trkpt lat="40.7911725" lon="17.1097093"><ele>371.0</ele><time>2026-03-23T08:39:55.68Z</time></trkpt><trkpt lat="40.7912007" lon="17.1097938"><ele>371.0</ele><time>2026-03-23T08:39:57.657Z</time></trkpt><trkpt lat="40.7912317" lon="17.1098713"><ele>371.5</ele><time>2026-03-23T08:39:59.668Z</time></trkpt><trkpt lat="40.791285" lon="17.1099754"><ele>372.0</ele><time>2026-03-23T08:40:02.656Z</time></trkpt><trkpt lat="40.7913244" lon="17.1100418"><ele>372.5</ele><time>2026-03-23T08:40:04.652Z</time></trkpt><trkpt lat="40.7913642" lon="17.110114"><ele>373.0</ele><time>2026-03-23T08:40:06.661Z</time></trkpt><trkpt lat="40.7914193" lon="17.1102094"><ele>373.5</ele><time>2026-03-23T08:40:09.666Z</time></trkpt><trkpt lat="40.7914728" lon="17.1103176"><ele>374.0</ele><time>2026-03-23T08:40:12.66Z</time></trkpt><trkpt lat="40.7915269" lon="17.1104116"><ele>374.0</ele><time>2026-03-23T08:40:15.68Z</time></trkpt><trkpt lat="40.7915634" lon="17.1104834"><ele>374.0</ele><time>2026-03-23T08:40:17.683Z</time></trkpt><trkpt lat="40.7916007" lon="17.1105658"><ele>374.0</ele><time>2026-03-23T08:40:19.687Z</time></trkpt><trkpt lat="40.7916281" lon="17.1106423"><ele>374.0</ele><time>2026-03-23T08:40:21.68Z</time></trkpt><trkpt lat="40.7916551" lon="17.1107181"><ele>374.0</ele><time>2026-03-23T08:40:23.678Z</time></trkpt><trkpt lat="40.7916856" lon="17.1107909"><ele>374.0</ele><time>2026-03-23T08:40:25.671Z</time></trkpt><trkpt lat="40.7917127" lon="17.1108706"><ele>374.0</ele><time>2026-03-23T08:40:27.678Z</time></trkpt><trkpt lat="40.7917384" lon="17.1109516"><ele>374.0</ele><time>2026-03-23T08:40:29.683Z</time></trkpt><trkpt lat="40.791764" lon="17.1110323"><ele>374.0</ele><time>2026-03-23T08:40:31.698Z</time></trkpt><trkpt lat="40.7917874" lon="17.1111141"><ele>374.0</ele><time>2026-03-23T08:40:33.679Z</time></trkpt><trkpt lat="40.791825" lon="17.1112204"><ele>374.0</ele><time>2026-03-23T08:40:36.674Z</time></trkpt><trkpt lat="40.7918481" lon="17.1113019"><ele>374.0</ele><time>2026-03-23T08:40:38.676Z</time></trkpt><trkpt lat="40.7918814" lon="17.1114129"><ele>374.0</ele><time>2026-03-23T08:40:41.673Z</time></trkpt><trkpt lat="40.7919217" lon="17.1115189"><ele>373.83333333333337</ele><time>2026-03-23T08:40:44.662Z</time></trkpt><trkpt lat="40.7919593" lon="17.1116278"><ele>373.6666666666667</ele><time>2026-03-23T08:40:47.671Z</time></trkpt><trkpt lat="40.7919909" lon="17.1117036"><ele>373.5</ele><time>2026-03-23T08:40:49.68Z</time></trkpt><trkpt lat="40.7920266" lon="17.1117858"><ele>373.3333333333333</ele><time>2026-03-23T08:40:51.684Z</time></trkpt><trkpt lat="40.7920608" lon="17.1118888"><ele>373.16666666666663</ele><time>2026-03-23T08:40:53.674Z</time></trkpt><trkpt lat="40.792096" lon="17.1120081"><ele>373.0</ele><time>2026-03-23T08:40:55.681Z</time></trkpt><trkpt lat="40.7921245" lon="17.1121421"><ele>373.0</ele><time>2026-03-23T08:40:57.678Z</time></trkpt><trkpt lat="40.7921618" lon="17.1122985"><ele>373.0</ele><time>2026-03-23T08:40:59.673Z</time></trkpt><trkpt lat="40.7921927" lon="17.1124664"><ele>373.0</ele><time>2026-03-23T08:41:01.696Z</time></trkpt><trkpt lat="40.7922083" lon="17.112553"><ele>373.0</ele><time>2026-03-23T08:41:02.673Z</time></trkpt><trkpt lat="40.7922215" lon="17.1126417"><ele>373.0</ele><time>2026-03-23T08:41:03.678Z</time></trkpt><trkpt lat="40.7922354" lon="17.1127302"><ele>372.7142857142857</ele><time>2026-03-23T08:41:04.684Z</time></trkpt><trkpt lat="40.7922463" lon="17.1128145"><ele>372.42857142857144</ele><time>2026-03-23T08:41:05.684Z</time></trkpt><trkpt lat="40.7922551" lon="17.1129021"><ele>372.1428571428571</ele><time>2026-03-23T08:41:06.715Z</time></trkpt><trkpt lat="40.7922621" lon="17.1129878"><ele>371.8571428571429</ele><time>2026-03-23T08:41:07.687Z</time></trkpt><trkpt lat="40.7922647" lon="17.1130733"><ele>371.57142857142856</ele><time>2026-03-23T08:41:08.667Z</time></trkpt><trkpt lat="40.7922648" lon="17.1131599"><ele>371.2857142857143</ele><time>2026-03-23T08:41:09.68Z</time></trkpt><trkpt lat="40.7922761" lon="17.1133115"><ele>371.0</ele><time>2026-03-23T08:41:11.691Z</time></trkpt><trkpt lat="40.7922809" lon="17.1134513"><ele>370.6666666666667</ele><time>2026-03-23T08:41:13.678Z</time></trkpt><trkpt lat="40.7922833" lon="17.1135713"><ele>370.33333333333337</ele><time>2026-03-23T08:41:15.674Z</time></trkpt><trkpt lat="40.7922822" lon="17.1136818"><ele>370.0</ele><time>2026-03-23T08:41:17.668Z</time></trkpt><trkpt lat="40.7922777" lon="17.1137972"><ele>369.6666666666667</ele><time>2026-03-23T08:41:19.676Z</time></trkpt><trkpt lat="40.7922504" lon="17.1139132"><ele>369.3333333333333</ele><time>2026-03-23T08:41:21.68Z</time></trkpt><trkpt lat="40.792231" lon="17.1140142"><ele>369.0</ele><time>2026-03-23T08:41:23.697Z</time></trkpt><trkpt lat="40.7922165" lon="17.1141229"><ele>369.0</ele><time>2026-03-23T08:41:25.681Z</time></trkpt><trkpt lat="40.7922048" lon="17.114224"><ele>369.0</ele><time>2026-03-23T08:41:27.677Z</time></trkpt><trkpt lat="40.7921929" lon="17.1143321"><ele>369.0</ele><time>2026-03-23T08:41:29.673Z</time></trkpt><trkpt lat="40.792181" lon="17.1144414"><ele>369.0</ele><time>2026-03-23T08:41:31.672Z</time></trkpt><trkpt lat="40.7921613" lon="17.1145509"><ele>369.0</ele><time>2026-03-23T08:41:33.68Z</time></trkpt><trkpt lat="40.7921463" lon="17.1146541"><ele>369.0</ele><time>2026-03-23T08:41:35.693Z</time></trkpt><trkpt lat="40.7921323" lon="17.1147622"><ele>369.0</ele><time>2026-03-23T08:41:37.674Z</time></trkpt><trkpt lat="40.7921197" lon="17.1148634"><ele>369.0</ele><time>2026-03-23T08:41:39.679Z</time></trkpt><trkpt lat="40.7921126" lon="17.11497"><ele>369.0</ele><time>2026-03-23T08:41:41.676Z</time></trkpt><trkpt lat="40.7921042" lon="17.115074"><ele>369.0</ele><time>2026-03-23T08:41:43.674Z</time></trkpt><trkpt lat="40.7920911" lon="17.1151756"><ele>369.0</ele><time>2026-03-23T08:41:45.676Z</time></trkpt><trkpt lat="40.792078" lon="17.1152688"><ele>369.0</ele><time>2026-03-23T08:41:47.676Z</time></trkpt><trkpt lat="40.7920618" lon="17.1153637"><ele>369.5</ele><time>2026-03-23T08:41:49.681Z</time></trkpt><trkpt lat="40.7920446" lon="17.1154652"><ele>370.0</ele><time>2026-03-23T08:41:51.683Z</time></trkpt><trkpt lat="40.7920225" lon="17.1155655"><ele>370.5</ele><time>2026-03-23T08:41:53.697Z</time></trkpt><trkpt lat="40.7919985" lon="17.1156595"><ele>371.0</ele><time>2026-03-23T08:41:55.679Z</time></trkpt><trkpt lat="40.7919641" lon="17.1157564"><ele>371.5</ele><time>2026-03-23T08:41:57.673Z</time></trkpt><trkpt lat="40.7919268" lon="17.1158597"><ele>372.0</ele><time>2026-03-23T08:41:59.677Z</time></trkpt><trkpt lat="40.7919091" lon="17.1159737"><ele>372.1666666666667</ele><time>2026-03-23T08:42:01.698Z</time></trkpt><trkpt lat="40.7919251" lon="17.116079"><ele>372.3333333333333</ele><time>2026-03-23T08:42:03.674Z</time></trkpt><trkpt lat="40.7919581" lon="17.1161805"><ele>372.5</ele><time>2026-03-23T08:42:05.678Z</time></trkpt><trkpt lat="40.791995" lon="17.1162817"><ele>372.66666666666663</ele><time>2026-03-23T08:42:07.678Z</time></trkpt><trkpt lat="40.7920286" lon="17.1163743"><ele>372.8333333333333</ele><time>2026-03-23T08:42:09.692Z</time></trkpt><trkpt lat="40.7920584" lon="17.1164805"><ele>373.0</ele><time>2026-03-23T08:42:11.687Z</time></trkpt><trkpt lat="40.7920898" lon="17.1165834"><ele>373.16666666666663</ele><time>2026-03-23T08:42:13.673Z</time></trkpt><trkpt lat="40.7921204" lon="17.1166877"><ele>373.3333333333333</ele><time>2026-03-23T08:42:15.672Z</time></trkpt><trkpt lat="40.7921422" lon="17.1167965"><ele>373.5</ele><time>2026-03-23T08:42:17.672Z</time></trkpt><trkpt lat="40.7921644" lon="17.116897"><ele>373.6666666666667</ele><time>2026-03-23T08:42:19.681Z</time></trkpt><trkpt lat="40.792188" lon="17.1169992"><ele>373.83333333333337</ele><time>2026-03-23T08:42:21.682Z</time></trkpt><trkpt lat="40.7922026" lon="17.1171079"><ele>374.0</ele><time>2026-03-23T08:42:23.675Z</time></trkpt><trkpt lat="40.7922211" lon="17.1172238"><ele>374.0</ele><time>2026-03-23T08:42:25.677Z</time></trkpt><trkpt lat="40.7922311" lon="17.1173356"><ele>374.0</ele><time>2026-03-23T08:42:27.682Z</time></trkpt><trkpt lat="40.7922502" lon="17.117449"><ele>374.0</ele><time>2026-03-23T08:42:29.687Z</time></trkpt><trkpt lat="40.7922678" lon="17.1175518"><ele>374.0</ele><time>2026-03-23T08:42:31.689Z</time></trkpt><trkpt lat="40.7922926" lon="17.1176545"><ele>374.0</ele><time>2026-03-23T08:42:33.691Z</time></trkpt><trkpt lat="40.7923159" lon="17.1177382"><ele>374.0</ele><time>2026-03-23T08:42:35.68Z</time></trkpt><trkpt lat="40.792345" lon="17.1178205"><ele>374.1428571428571</ele><time>2026-03-23T08:42:37.684Z</time></trkpt><trkpt lat="40.7923766" lon="17.1178946"><ele>374.28571428571433</ele><time>2026-03-23T08:42:39.682Z</time></trkpt><trkpt lat="40.7924097" lon="17.1179659"><ele>374.42857142857144</ele><time>2026-03-23T08:42:41.689Z</time></trkpt><trkpt lat="40.7924418" lon="17.1180384"><ele>374.57142857142856</ele><time>2026-03-23T08:42:43.671Z</time></trkpt><trkpt lat="40.7924725" lon="17.1181122"><ele>374.71428571428567</ele><time>2026-03-23T08:42:45.669Z</time></trkpt><trkpt lat="40.7925049" lon="17.1181921"><ele>374.8571428571429</ele><time>2026-03-23T08:42:47.679Z</time></trkpt><trkpt lat="40.7925386" lon="17.1182739"><ele>375.0</ele><time>2026-03-23T08:42:49.681Z</time></trkpt><trkpt lat="40.7925692" lon="17.118352"><ele>375.14285714285717</ele><time>2026-03-23T08:42:51.698Z</time></trkpt><trkpt lat="40.7926014" lon="17.1184266"><ele>375.2857142857143</ele><time>2026-03-23T08:42:53.681Z</time></trkpt><trkpt lat="40.7926416" lon="17.1185389"><ele>375.42857142857144</ele><time>2026-03-23T08:42:56.705Z</time></trkpt><trkpt lat="40.7926734" lon="17.1186159"><ele>375.57142857142856</ele><time>2026-03-23T08:42:58.682Z</time></trkpt><trkpt lat="40.7927075" lon="17.118696"><ele>375.71428571428567</ele><time>2026-03-23T08:43:00.675Z</time></trkpt><trkpt lat="40.7927366" lon="17.118778"><ele>375.85714285714283</ele><time>2026-03-23T08:43:02.669Z</time></trkpt><trkpt lat="40.7927649" lon="17.1188554"><ele>376.0</ele><time>2026-03-23T08:43:04.672Z</time></trkpt><trkpt lat="40.7927988" lon="17.118968"><ele>376.5</ele><time>2026-03-23T08:43:07.686Z</time></trkpt><trkpt lat="40.7928156" lon="17.1190643"><ele>377.0</ele><time>2026-03-23T08:43:10.668Z</time></trkpt><trkpt lat="40.7927918" lon="17.1191583"><ele>377.5</ele><time>2026-03-23T08:43:13.668Z</time></trkpt><trkpt lat="40.7927739" lon="17.119276"><ele>378.0</ele><time>2026-03-23T08:43:16.67Z</time></trkpt><trkpt lat="40.792804" lon="17.1193553"><ele>378.5</ele><time>2026-03-23T08:43:18.672Z</time></trkpt><trkpt lat="40.7928467" lon="17.1194257"><ele>379.0</ele><time>2026-03-23T08:43:20.671Z</time></trkpt><trkpt lat="40.7929217" lon="17.119459"><ele>379.8333333333333</ele><time>2026-03-23T08:43:23.678Z</time></trkpt><trkpt lat="40.7929951" lon="17.1194545"><ele>380.66666666666663</ele><time>2026-03-23T08:43:34.676Z</time></trkpt><trkpt lat="40.7930831" lon="17.1194324"><ele>381.5</ele><time>2026-03-23T08:43:39.676Z</time></trkpt><trkpt lat="40.7931695" lon="17.1194031"><ele>382.3333333333333</ele><time>2026-03-23T08:43:42.667Z</time></trkpt><trkpt lat="40.7932489" lon="17.1193644"><ele>383.1666666666667</ele><time>2026-03-23T08:43:45.678Z</time></trkpt><trkpt lat="40.7933304" lon="17.1193207"><ele>384.0</ele><time>2026-03-23T08:43:48.691Z</time></trkpt><trkpt lat="40.7934055" lon="17.119259"><ele>384.0</ele><time>2026-03-23T08:43:51.686Z</time></trkpt><trkpt lat="40.7934669" lon="17.1192149"><ele>384.0</ele><time>2026-03-23T08:43:54.664Z</time></trkpt><trkpt lat="40.7935463" lon="17.1191847"><ele>384.0</ele><time>2026-03-23T08:43:57.687Z</time></trkpt><trkpt lat="40.7936154" lon="17.1191731"><ele>384.0</ele><time>2026-03-23T08:45:25.665Z</time></trkpt><trkpt lat="40.7936662" lon="17.1191051"><ele>384.0</ele><time>2026-03-23T08:45:31.679Z</time></trkpt><trkpt lat="40.7937327" lon="17.1190425"><ele>384.0</ele><time>2026-03-23T08:45:34.673Z</time></trkpt><trkpt lat="40.7937997" lon="17.1189782"><ele>384.0</ele><time>2026-03-23T08:45:37.674Z</time></trkpt><trkpt lat="40.793861" lon="17.1189171"><ele>384.0</ele><time>2026-03-23T08:45:40.648Z</time></trkpt><trkpt lat="40.7939216" lon="17.1188576"><ele>384.0</ele><time>2026-03-23T08:45:43.676Z</time></trkpt><trkpt lat="40.7939766" lon="17.118807"><ele>384.0</ele><time>2026-03-23T08:45:46.662Z</time></trkpt><trkpt lat="40.7940394" lon="17.1187475"><ele>384.0</ele><time>2026-03-23T08:45:49.684Z</time></trkpt><trkpt lat="40.7941062" lon="17.1186819"><ele>384.0</ele><time>2026-03-23T08:45:52.668Z</time></trkpt><trkpt lat="40.7941825" lon="17.1186315"><ele>384.0</ele><time>2026-03-23T08:45:55.683Z</time></trkpt><trkpt lat="40.7942626" lon="17.1185989"><ele>384.0</ele><time>2026-03-23T08:45:58.672Z</time></trkpt><trkpt lat="40.7943487" lon="17.1185881"><ele>384.0</ele><time>2026-03-23T08:46:01.676Z</time></trkpt><trkpt lat="40.7944303" lon="17.1185933"><ele>384.0</ele><time>2026-03-23T08:46:04.665Z</time></trkpt><trkpt lat="40.7945015" lon="17.1186136"><ele>384.0</ele><time>2026-03-23T08:46:07.678Z</time></trkpt><trkpt lat="40.794573" lon="17.118653"><ele>384.0</ele><time>2026-03-23T08:46:10.682Z</time></trkpt><trkpt lat="40.79465" lon="17.1186894"><ele>385.3333333333333</ele><time>2026-03-23T08:46:13.661Z</time></trkpt><trkpt lat="40.7947359" lon="17.1187293"><ele>386.66666666666663</ele><time>2026-03-23T08:46:16.671Z</time></trkpt><trkpt lat="40.7948078" lon="17.1187671"><ele>388.0</ele><time>2026-03-23T08:46:19.674Z</time></trkpt><trkpt lat="40.7948789" lon="17.118811"><ele>389.3333333333333</ele><time>2026-03-23T08:46:22.671Z</time></trkpt><trkpt lat="40.7949563" lon="17.1188397"><ele>390.66666666666663</ele><time>2026-03-23T08:46:25.67Z</time></trkpt><trkpt lat="40.7950357" lon="17.1188674"><ele>392.0</ele><time>2026-03-23T08:46:28.696Z</time></trkpt><trkpt lat="40.7951099" lon="17.1188918"><ele>393.14285714285717</ele><time>2026-03-23T08:46:31.675Z</time></trkpt><trkpt lat="40.7951797" lon="17.1189126"><ele>394.2857142857143</ele><time>2026-03-23T08:46:34.681Z</time></trkpt><trkpt lat="40.7952484" lon="17.1189319"><ele>395.42857142857144</ele><time>2026-03-23T08:46:37.686Z</time></trkpt><trkpt lat="40.7953201" lon="17.1189122"><ele>396.57142857142856</ele><time>2026-03-23T08:46:55.665Z</time></trkpt><trkpt lat="40.795394" lon="17.118882"><ele>397.7142857142857</ele><time>2026-03-23T08:48:08.682Z</time></trkpt><trkpt lat="40.7954603" lon="17.1188438"><ele>398.8571428571429</ele><time>2026-03-23T08:48:11.686Z</time></trkpt><trkpt lat="40.7955351" lon="17.1188165"><ele>400.0</ele><time>2026-03-23T08:48:14.676Z</time></trkpt><trkpt lat="40.7956093" lon="17.1187907"><ele>400.00000000000006</ele><time>2026-03-23T08:48:17.693Z</time></trkpt><trkpt lat="40.7956868" lon="17.1187581"><ele>400.0</ele><time>2026-03-23T08:48:20.675Z</time></trkpt><trkpt lat="40.7957649" lon="17.1187262"><ele>400.0</ele><time>2026-03-23T08:48:23.683Z</time></trkpt><trkpt lat="40.7958504" lon="17.1186935"><ele>400.0</ele><time>2026-03-23T08:48:26.676Z</time></trkpt><trkpt lat="40.795935" lon="17.1186753"><ele>400.00000000000006</ele><time>2026-03-23T08:48:29.673Z</time></trkpt><trkpt lat="40.7960213" lon="17.1186975"><ele>400.0</ele><time>2026-03-23T08:48:32.688Z</time></trkpt><trkpt lat="40.7961072" lon="17.1187093"><ele>401.14285714285717</ele><time>2026-03-23T08:48:35.675Z</time></trkpt><trkpt lat="40.7961894" lon="17.1187465"><ele>402.2857142857143</ele><time>2026-03-23T08:48:38.668Z</time></trkpt><trkpt lat="40.7962699" lon="17.1188027"><ele>403.42857142857144</ele><time>2026-03-23T08:48:41.709Z</time></trkpt><trkpt lat="40.7963269" lon="17.1188457"><ele>404.57142857142856</ele><time>2026-03-23T08:48:44.674Z</time></trkpt><trkpt lat="40.7963955" lon="17.1188396"><ele>405.7142857142857</ele><time>2026-03-23T08:48:47.667Z</time></trkpt><trkpt lat="40.7964557" lon="17.118804"><ele>406.8571428571429</ele><time>2026-03-23T08:48:50.678Z</time></trkpt><trkpt lat="40.7965099" lon="17.1187589"><ele>408.0</ele><time>2026-03-23T08:48:53.696Z</time></trkpt><trkpt lat="40.7965704" lon="17.1186992"><ele>408.0</ele><time>2026-03-23T08:49:29.669Z</time></trkpt><trkpt lat="40.7966284" lon="17.1186256"><ele>408.0</ele><time>2026-03-23T08:49:32.665Z</time></trkpt><trkpt lat="40.7966826" lon="17.1185588"><ele>408.0</ele><time>2026-03-23T08:49:35.686Z</time></trkpt><trkpt lat="40.7967389" lon="17.1185072"><ele>408.0</ele><time>2026-03-23T08:49:52.67Z</time></trkpt><trkpt lat="40.7967926" lon="17.1184422"><ele>408.0</ele><time>2026-03-23T08:49:55.676Z</time></trkpt><trkpt lat="40.7968492" lon="17.1183716"><ele>408.0</ele><time>2026-03-23T08:49:58.676Z</time></trkpt><trkpt lat="40.7968973" lon="17.1182878"><ele>408.0</ele><time>2026-03-23T08:50:01.669Z</time></trkpt><trkpt lat="40.7969473" lon="17.1182116"><ele>408.0</ele><time>2026-03-23T08:50:04.659Z</time></trkpt><trkpt lat="40.797001" lon="17.1181269"><ele>408.0</ele><time>2026-03-23T08:50:07.675Z</time></trkpt><trkpt lat="40.797057" lon="17.1180535"><ele>408.0</ele><time>2026-03-23T08:50:10.671Z</time></trkpt><trkpt lat="40.7970977" lon="17.1179838"><ele>408.0</ele><time>2026-03-23T08:50:13.676Z</time></trkpt><trkpt lat="40.7971267" lon="17.117905"><ele>408.0</ele><time>2026-03-23T08:50:16.663Z</time></trkpt><trkpt lat="40.7971795" lon="17.1178547"><ele>408.0</ele><time>2026-03-23T08:50:19.675Z</time></trkpt><trkpt lat="40.7972529" lon="17.1178915"><ele>408.0</ele><time>2026-03-23T08:50:23.668Z</time></trkpt><trkpt lat="40.7973235" lon="17.1179426"><ele>408.0</ele><time>2026-03-23T08:50:26.674Z</time></trkpt><trkpt lat="40.7973861" lon="17.1179879"><ele>408.0</ele><time>2026-03-23T08:50:29.676Z</time></trkpt><trkpt lat="40.7974519" lon="17.118032"><ele>408.0</ele><time>2026-03-23T08:50:32.67Z</time></trkpt><trkpt lat="40.7975275" lon="17.1180822"><ele>408.0</ele><time>2026-03-23T08:50:35.669Z</time></trkpt><trkpt lat="40.7975798" lon="17.1181305"><ele>408.0</ele><time>2026-03-23T08:50:37.67Z</time></trkpt><trkpt lat="40.7976444" lon="17.1181615"><ele>408.0</ele><time>2026-03-23T08:50:39.686Z</time></trkpt><trkpt lat="40.797703" lon="17.1181995"><ele>408.5</ele><time>2026-03-23T08:50:41.675Z</time></trkpt><trkpt lat="40.7977832" lon="17.118248"><ele>409.0</ele><time>2026-03-23T08:50:44.664Z</time></trkpt><trkpt lat="40.7978577" lon="17.1182999"><ele>409.5</ele><time>2026-03-23T08:50:47.681Z</time></trkpt><trkpt lat="40.7979244" lon="17.1183562"><ele>410.0</ele><time>2026-03-23T08:50:50.666Z</time></trkpt><trkpt lat="40.7979983" lon="17.1183914"><ele>410.5</ele><time>2026-03-23T08:50:53.678Z</time></trkpt><trkpt lat="40.7980588" lon="17.118427"><ele>411.0</ele><time>2026-03-23T08:50:56.676Z</time></trkpt><trkpt lat="40.7981204" lon="17.1184632"><ele>411.0</ele><time>2026-03-23T08:50:59.679Z</time></trkpt><trkpt lat="40.7981907" lon="17.1185027"><ele>411.0</ele><time>2026-03-23T08:51:02.676Z</time></trkpt><trkpt lat="40.7982604" lon="17.1185397"><ele>411.0</ele><time>2026-03-23T08:51:05.678Z</time></trkpt><trkpt lat="40.7983201" lon="17.1185792"><ele>411.0</ele><time>2026-03-23T08:51:08.657Z</time></trkpt><trkpt lat="40.7983725" lon="17.1186257"><ele>411.0</ele><time>2026-03-23T08:51:11.672Z</time></trkpt><trkpt lat="40.7984319" lon="17.1186742"><ele>411.0</ele><time>2026-03-23T08:51:14.664Z</time></trkpt><trkpt lat="40.7984956" lon="17.1187224"><ele>411.0</ele><time>2026-03-23T08:51:17.68Z</time></trkpt><trkpt lat="40.798494" lon="17.118827"><ele>411.0</ele><time>2026-03-23T08:51:22.692Z</time></trkpt><trkpt lat="40.7984605" lon="17.1189035"><ele>411.0</ele><time>2026-03-23T08:51:25.665Z</time></trkpt><trkpt lat="40.7984312" lon="17.1190067"><ele>411.0</ele><time>2026-03-23T08:51:29.697Z</time></trkpt><trkpt lat="40.7983945" lon="17.1190866"><ele>411.0</ele><time>2026-03-23T08:51:32.677Z</time></trkpt><trkpt lat="40.7983509" lon="17.119166"><ele>411.0</ele><time>2026-03-23T08:51:35.664Z</time></trkpt><trkpt lat="40.7983123" lon="17.1192454"><ele>411.0</ele><time>2026-03-23T08:51:38.672Z</time></trkpt><trkpt lat="40.7982768" lon="17.1193461"><ele>411.0</ele><time>2026-03-23T08:51:42.666Z</time></trkpt><trkpt lat="40.7982404" lon="17.1194204"><ele>411.0</ele><time>2026-03-23T08:51:45.672Z</time></trkpt><trkpt lat="40.7982065" lon="17.119501"><ele>411.0</ele><time>2026-03-23T08:51:48.67Z</time></trkpt><trkpt lat="40.7981704" lon="17.119572"><ele>411.0</ele><time>2026-03-23T08:51:51.665Z</time></trkpt><trkpt lat="40.7981268" lon="17.1196521"><ele>411.0</ele><time>2026-03-23T08:51:56.679Z</time></trkpt><trkpt lat="40.7980921" lon="17.1197271"><ele>411.0</ele><time>2026-03-23T08:52:03.671Z</time></trkpt><trkpt lat="40.7980486" lon="17.1198006"><ele>411.0</ele><time>2026-03-23T08:52:16.701Z</time></trkpt><trkpt lat="40.7980113" lon="17.1198848"><ele>411.0</ele><time>2026-03-23T08:52:19.66Z</time></trkpt><trkpt lat="40.7979746" lon="17.119961"><ele>411.0</ele><time>2026-03-23T08:52:22.673Z</time></trkpt><trkpt lat="40.797938" lon="17.1200463"><ele>411.0</ele><time>2026-03-23T08:52:25.678Z</time></trkpt><trkpt lat="40.7979077" lon="17.1201252"><ele>411.0</ele><time>2026-03-23T08:52:29.674Z</time></trkpt><trkpt lat="40.7978709" lon="17.1202132"><ele>411.0</ele><time>2026-03-23T08:52:32.682Z</time></trkpt><trkpt lat="40.7978387" lon="17.120307"><ele>411.0</ele><time>2026-03-23T08:52:36.67Z</time></trkpt><trkpt lat="40.7978215" lon="17.1203873"><ele>411.0</ele><time>2026-03-23T08:52:38.673Z</time></trkpt><trkpt lat="40.7978168" lon="17.1205006"><ele>411.0</ele><time>2026-03-23T08:52:40.679Z</time></trkpt><trkpt lat="40.7978132" lon="17.1205839"><ele>411.0</ele><time>2026-03-23T08:52:42.674Z</time></trkpt><trkpt lat="40.7977701" lon="17.1206844"><ele>411.0</ele><time>2026-03-23T08:52:45.682Z</time></trkpt><trkpt lat="40.7977185" lon="17.120745"><ele>411.0</ele><time>2026-03-23T08:52:47.669Z</time></trkpt><trkpt lat="40.7976607" lon="17.1208009"><ele>411.0</ele><time>2026-03-23T08:52:49.684Z</time></trkpt><trkpt lat="40.7975816" lon="17.1208566"><ele>411.0</ele><time>2026-03-23T08:52:52.675Z</time></trkpt><trkpt lat="40.7975168" lon="17.1209108"><ele>412.0</ele><time>2026-03-23T08:52:56.669Z</time></trkpt><trkpt lat="40.7974536" lon="17.1209871"><ele>413.0</ele><time>2026-03-23T08:53:00.681Z</time></trkpt><trkpt lat="40.797385" lon="17.1210583"><ele>414.0</ele><time>2026-03-23T08:53:03.668Z</time></trkpt><trkpt lat="40.797321" lon="17.1211204"><ele>415.0</ele><time>2026-03-23T08:53:06.671Z</time></trkpt><trkpt lat="40.7972405" lon="17.121159"><ele>416.0</ele><time>2026-03-23T08:53:09.668Z</time></trkpt><trkpt lat="40.7971769" lon="17.1211857"><ele>417.0</ele><time>2026-03-23T08:53:12.675Z</time></trkpt><trkpt lat="40.797125" lon="17.1212333"><ele>418.0</ele><time>2026-03-23T08:53:23.657Z</time></trkpt><trkpt lat="40.7964649" lon="17.1223205"><ele>418.0</ele><time>2026-03-23T09:02:23.649Z</time></trkpt><trkpt lat="40.7964244" lon="17.1223933"><ele>418.0</ele><time>2026-03-23T09:02:26.639Z</time></trkpt><trkpt lat="40.7963496" lon="17.122363"><ele>418.0</ele><time>2026-03-23T09:02:30.653Z</time></trkpt><trkpt lat="40.7962791" lon="17.1223036"><ele>418.0</ele><time>2026-03-23T09:02:34.664Z</time></trkpt><trkpt lat="40.7962248" lon="17.1222525"><ele>418.0</ele><time>2026-03-23T09:02:37.642Z</time></trkpt><trkpt lat="40.7961618" lon="17.1221799"><ele>418.0</ele><time>2026-03-23T09:02:41.653Z</time></trkpt><trkpt lat="40.796115" lon="17.1221239"><ele>418.0</ele><time>2026-03-23T09:02:43.65Z</time></trkpt><trkpt lat="40.7960645" lon="17.1220503"><ele>418.1666666666667</ele><time>2026-03-23T09:02:45.655Z</time></trkpt><trkpt lat="40.7959991" lon="17.121974"><ele>418.33333333333337</ele><time>2026-03-23T09:02:47.649Z</time></trkpt><trkpt lat="40.7959461" lon="17.1218964"><ele>418.5</ele><time>2026-03-23T09:02:49.657Z</time></trkpt><trkpt lat="40.7958889" lon="17.1218273"><ele>418.66666666666663</ele><time>2026-03-23T09:02:51.654Z</time></trkpt><trkpt lat="40.7958244" lon="17.1217593"><ele>418.8333333333333</ele><time>2026-03-23T09:02:53.652Z</time></trkpt><trkpt lat="40.7957652" lon="17.1216953"><ele>419.0</ele><time>2026-03-23T09:02:55.658Z</time></trkpt><trkpt lat="40.795717" lon="17.1216309"><ele>418.99999999999994</ele><time>2026-03-23T09:02:57.663Z</time></trkpt><trkpt lat="40.7956662" lon="17.1215814"><ele>419.0</ele><time>2026-03-23T09:02:59.652Z</time></trkpt><trkpt lat="40.7955913" lon="17.1215461"><ele>419.0</ele><time>2026-03-23T09:03:02.651Z</time></trkpt><trkpt lat="40.7955207" lon="17.1216012"><ele>419.0</ele><time>2026-03-23T09:03:06.633Z</time></trkpt><trkpt lat="40.795469" lon="17.12165"><ele>419.0</ele><time>2026-03-23T09:03:09.633Z</time></trkpt><trkpt lat="40.7954937" lon="17.1217479"><ele>418.99999999999994</ele><time>2026-03-23T09:03:12.633Z</time></trkpt><trkpt lat="40.7955288" lon="17.1218197"><ele>419.0</ele><time>2026-03-23T09:03:18.652Z</time></trkpt><trkpt lat="40.7955949" lon="17.1218687"><ele>418.99999999999994</ele><time>2026-03-23T09:03:21.645Z</time></trkpt><trkpt lat="40.7956417" lon="17.12193"><ele>419.0</ele><time>2026-03-23T09:03:24.656Z</time></trkpt><trkpt lat="40.7956549" lon="17.1220303"><ele>419.0</ele><time>2026-03-23T09:03:28.646Z</time></trkpt><trkpt lat="40.7955971" lon="17.1220902"><ele>419.0</ele><time>2026-03-23T09:03:31.65Z</time></trkpt><trkpt lat="40.7955531" lon="17.1221592"><ele>418.99999999999994</ele><time>2026-03-23T09:03:34.644Z</time></trkpt><trkpt lat="40.7955741" lon="17.1222757"><ele>419.0</ele><time>2026-03-23T09:03:37.642Z</time></trkpt><trkpt lat="40.7956045" lon="17.1223667"><ele>419.57142857142856</ele><time>2026-03-23T09:03:40.643Z</time></trkpt><trkpt lat="40.7956329" lon="17.1224441"><ele>420.1428571428571</ele><time>2026-03-23T09:03:45.634Z</time></trkpt><trkpt lat="40.7956108" lon="17.1225328"><ele>420.71428571428567</ele><time>2026-03-23T09:04:21.648Z</time></trkpt><trkpt lat="40.7956707" lon="17.1225033"><ele>421.2857142857143</ele><time>2026-03-23T09:04:55.634Z</time></trkpt><trkpt lat="40.7957193" lon="17.1225595"><ele>421.8571428571429</ele><time>2026-03-23T09:05:10.65Z</time></trkpt><trkpt lat="40.7957444" lon="17.1226438"><ele>422.4285714285714</ele><time>2026-03-23T09:05:14.641Z</time></trkpt><trkpt lat="40.7957783" lon="17.1227263"><ele>423.0</ele><time>2026-03-23T09:05:18.651Z</time></trkpt><trkpt lat="40.795696" lon="17.1227804"><ele>423.0</ele><time>2026-03-23T09:05:22.645Z</time></trkpt><trkpt lat="40.7956157" lon="17.1228256"><ele>423.0</ele><time>2026-03-23T09:05:25.644Z</time></trkpt><trkpt lat="40.7955315" lon="17.122851"><ele>423.0</ele><time>2026-03-23T09:05:28.649Z</time></trkpt><trkpt lat="40.7954535" lon="17.1228577"><ele>423.0</ele><time>2026-03-23T09:05:32.669Z</time></trkpt><trkpt lat="40.7953848" lon="17.1229062"><ele>423.0</ele><time>2026-03-23T09:05:44.647Z</time></trkpt><trkpt lat="40.7953174" lon="17.1229804"><ele>423.0</ele><time>2026-03-23T09:05:46.643Z</time></trkpt><trkpt lat="40.7952459" lon="17.123061"><ele>423.0</ele><time>2026-03-23T09:05:48.641Z</time></trkpt><trkpt lat="40.7951919" lon="17.1231369"><ele>423.0</ele><time>2026-03-23T09:05:51.64Z</time></trkpt><trkpt lat="40.795125" lon="17.1232036"><ele>423.0</ele><time>2026-03-23T09:05:54.646Z</time></trkpt><trkpt lat="40.7950876" lon="17.1232706"><ele>423.0</ele><time>2026-03-23T09:05:56.651Z</time></trkpt><trkpt lat="40.7950318" lon="17.1233142"><ele>423.0</ele><time>2026-03-23T09:05:58.648Z</time></trkpt><trkpt lat="40.7949691" lon="17.1233974"><ele>423.0</ele><time>2026-03-23T09:06:01.646Z</time></trkpt><trkpt lat="40.7949326" lon="17.1235002"><ele>423.5</ele><time>2026-03-23T09:06:04.648Z</time></trkpt><trkpt lat="40.794942" lon="17.1236155"><ele>424.0</ele><time>2026-03-23T09:06:08.645Z</time></trkpt><trkpt lat="40.7949897" lon="17.1236798"><ele>424.5</ele><time>2026-03-23T09:06:10.641Z</time></trkpt><trkpt lat="40.7950621" lon="17.1237301"><ele>425.0</ele><time>2026-03-23T09:06:13.644Z</time></trkpt><trkpt lat="40.7951129" lon="17.1238125"><ele>425.5</ele><time>2026-03-23T09:06:16.642Z</time></trkpt><trkpt lat="40.7951457" lon="17.1238858"><ele>426.0</ele><time>2026-03-23T09:06:19.637Z</time></trkpt><trkpt lat="40.7951399" lon="17.1239823"><ele>426.0</ele><time>2026-03-23T09:06:23.648Z</time></trkpt><trkpt lat="40.7950938" lon="17.1240662"><ele>426.0</ele><time>2026-03-23T09:06:26.651Z</time></trkpt><trkpt lat="40.7950426" lon="17.1241414"><ele>426.0</ele><time>2026-03-23T09:06:29.649Z</time></trkpt><trkpt lat="40.7950001" lon="17.1242354"><ele>426.0</ele><time>2026-03-23T09:06:32.645Z</time></trkpt><trkpt lat="40.7949908" lon="17.1243575"><ele>426.0</ele><time>2026-03-23T09:06:35.652Z</time></trkpt><trkpt lat="40.7949863" lon="17.1244412"><ele>426.0</ele><time>2026-03-23T09:06:37.648Z</time></trkpt><trkpt lat="40.7949646" lon="17.1245215"><ele>426.0</ele><time>2026-03-23T09:06:39.642Z</time></trkpt><trkpt lat="40.7949306" lon="17.1246293"><ele>426.0</ele><time>2026-03-23T09:06:42.648Z</time></trkpt><trkpt lat="40.7949064" lon="17.1247447"><ele>426.0</ele><time>2026-03-23T09:06:45.636Z</time></trkpt><trkpt lat="40.7948587" lon="17.1247994"><ele>426.0</ele><time>2026-03-23T09:06:47.649Z</time></trkpt><trkpt lat="40.7948071" lon="17.1248542"><ele>426.0</ele><time>2026-03-23T09:06:49.67Z</time></trkpt><trkpt lat="40.7947688" lon="17.1249375"><ele>426.0</ele><time>2026-03-23T09:06:51.647Z</time></trkpt><trkpt lat="40.7947226" lon="17.1250339"><ele>425.6</ele><time>2026-03-23T09:06:54.648Z</time></trkpt><trkpt lat="40.7946514" lon="17.1251037"><ele>425.20000000000005</ele><time>2026-03-23T09:06:57.662Z</time></trkpt><trkpt lat="40.7945721" lon="17.1251528"><ele>424.79999999999995</ele><time>2026-03-23T09:06:59.659Z</time></trkpt><trkpt lat="40.794479" lon="17.1252185"><ele>424.4</ele><time>2026-03-23T09:07:01.648Z</time></trkpt><trkpt lat="40.7943822" lon="17.1252891"><ele>424.0</ele><time>2026-03-23T09:07:03.649Z</time></trkpt><trkpt lat="40.7943119" lon="17.1252939"><ele>424.00000000000006</ele><time>2026-03-23T09:07:05.65Z</time></trkpt><trkpt lat="40.7942486" lon="17.1252198"><ele>424.0</ele><time>2026-03-23T09:07:08.649Z</time></trkpt><trkpt lat="40.7942002" lon="17.125141"><ele>424.0</ele><time>2026-03-23T09:07:11.648Z</time></trkpt><trkpt lat="40.7941038" lon="17.1251369"><ele>424.0</ele><time>2026-03-23T09:07:14.649Z</time></trkpt><trkpt lat="40.7940381" lon="17.1251912"><ele>424.00000000000006</ele><time>2026-03-23T09:07:16.657Z</time></trkpt><trkpt lat="40.7939754" lon="17.12524"><ele>424.0</ele><time>2026-03-23T09:07:18.648Z</time></trkpt><trkpt lat="40.7939039" lon="17.125285"><ele>424.0</ele><time>2026-03-23T09:07:21.651Z</time></trkpt><trkpt lat="40.7938434" lon="17.1253472"><ele>424.0</ele><time>2026-03-23T09:07:25.654Z</time></trkpt><trkpt lat="40.7938014" lon="17.1254203"><ele>424.0</ele><time>2026-03-23T09:07:28.666Z</time></trkpt><trkpt lat="40.7938042" lon="17.1255071"><ele>424.0</ele><time>2026-03-23T09:07:30.651Z</time></trkpt><trkpt lat="40.7938139" lon="17.1256062"><ele>424.0</ele><time>2026-03-23T09:07:32.672Z</time></trkpt><trkpt lat="40.7938391" lon="17.1256881"><ele>424.0</ele><time>2026-03-23T09:07:34.652Z</time></trkpt><trkpt lat="40.7938591" lon="17.1257706"><ele>424.0</ele><time>2026-03-23T09:07:36.658Z</time></trkpt><trkpt lat="40.7938799" lon="17.1258583"><ele>424.00000000000006</ele><time>2026-03-23T09:07:40.652Z</time></trkpt><trkpt lat="40.7938718" lon="17.1259696"><ele>424.0</ele><time>2026-03-23T09:07:44.673Z</time></trkpt><trkpt lat="40.7938225" lon="17.1260284"><ele>424.0</ele><time>2026-03-23T09:07:46.652Z</time></trkpt><trkpt lat="40.7937551" lon="17.126085"><ele>424.0</ele><time>2026-03-23T09:07:48.659Z</time></trkpt><trkpt lat="40.7936707" lon="17.1261395"><ele>424.00000000000006</ele><time>2026-03-23T09:07:50.655Z</time></trkpt><trkpt lat="40.7935799" lon="17.1261911"><ele>424.0</ele><time>2026-03-23T09:07:52.656Z</time></trkpt><trkpt lat="40.793494" lon="17.1262473"><ele>424.00000000000006</ele><time>2026-03-23T09:07:54.654Z</time></trkpt><trkpt lat="40.7934183" lon="17.1263038"><ele>424.0</ele><time>2026-03-23T09:07:56.659Z</time></trkpt><trkpt lat="40.7933398" lon="17.1263558"><ele>424.0</ele><time>2026-03-23T09:07:58.664Z</time></trkpt><trkpt lat="40.7932713" lon="17.1264101"><ele>424.0</ele><time>2026-03-23T09:08:00.64Z</time></trkpt><trkpt lat="40.7932131" lon="17.1264543"><ele>424.00000000000006</ele><time>2026-03-23T09:08:02.651Z</time></trkpt><trkpt lat="40.7931476" lon="17.1264949"><ele>424.0</ele><time>2026-03-23T09:08:06.657Z</time></trkpt><trkpt lat="40.7930936" lon="17.1265502"><ele>423.7142857142857</ele><time>2026-03-23T09:08:10.662Z</time></trkpt><trkpt lat="40.7930399" lon="17.1266088"><ele>423.4285714285714</ele><time>2026-03-23T09:08:14.65Z</time></trkpt><trkpt lat="40.7929819" lon="17.1266557"><ele>423.1428571428571</ele><time>2026-03-23T09:08:17.652Z</time></trkpt><trkpt lat="40.7929225" lon="17.1266956"><ele>422.8571428571429</ele><time>2026-03-23T09:08:20.649Z</time></trkpt><trkpt lat="40.7928574" lon="17.1267471"><ele>422.57142857142856</ele><time>2026-03-23T09:08:25.659Z</time></trkpt><trkpt lat="40.792799" lon="17.1267941"><ele>422.2857142857143</ele><time>2026-03-23T09:08:29.652Z</time></trkpt><trkpt lat="40.7927358" lon="17.1268418"><ele>422.0</ele><time>2026-03-23T09:08:31.655Z</time></trkpt><trkpt lat="40.7926595" lon="17.1268935"><ele>421.8</ele><time>2026-03-23T09:08:33.648Z</time></trkpt><trkpt lat="40.792591" lon="17.1269723"><ele>421.6</ele><time>2026-03-23T09:08:35.647Z</time></trkpt><trkpt lat="40.7925054" lon="17.1270354"><ele>421.40000000000003</ele><time>2026-03-23T09:08:37.646Z</time></trkpt><trkpt lat="40.7924279" lon="17.1270945"><ele>421.20000000000005</ele><time>2026-03-23T09:08:39.642Z</time></trkpt><trkpt lat="40.7923446" lon="17.1271542"><ele>421.0</ele><time>2026-03-23T09:08:41.655Z</time></trkpt><trkpt lat="40.7922708" lon="17.1272233"><ele>421.00000000000006</ele><time>2026-03-23T09:08:43.654Z</time></trkpt><trkpt lat="40.7921959" lon="17.1272825"><ele>421.0</ele><time>2026-03-23T09:08:45.657Z</time></trkpt><trkpt lat="40.7921393" lon="17.1273196"><ele>421.0</ele><time>2026-03-23T09:08:47.669Z</time></trkpt><trkpt lat="40.7920624" lon="17.1273778"><ele>421.0</ele><time>2026-03-23T09:08:50.647Z</time></trkpt><trkpt lat="40.7919943" lon="17.1274343"><ele>421.00000000000006</ele><time>2026-03-23T09:08:52.654Z</time></trkpt><trkpt lat="40.7919045" lon="17.1274884"><ele>421.0</ele><time>2026-03-23T09:08:54.655Z</time></trkpt><trkpt lat="40.7918256" lon="17.127546"><ele>420.4</ele><time>2026-03-23T09:08:56.652Z</time></trkpt><trkpt lat="40.7917427" lon="17.127605"><ele>419.8</ele><time>2026-03-23T09:08:58.653Z</time></trkpt><trkpt lat="40.7916482" lon="17.1276528"><ele>419.2</ele><time>2026-03-23T09:09:00.684Z</time></trkpt><trkpt lat="40.7915538" lon="17.1277034"><ele>418.59999999999997</ele><time>2026-03-23T09:09:02.652Z</time></trkpt><trkpt lat="40.7914644" lon="17.1277535"><ele>418.0</ele><time>2026-03-23T09:09:04.657Z</time></trkpt><trkpt lat="40.7913733" lon="17.1278059"><ele>418.0</ele><time>2026-03-23T09:09:06.652Z</time></trkpt><trkpt lat="40.7912851" lon="17.1278732"><ele>418.0</ele><time>2026-03-23T09:09:08.657Z</time></trkpt><trkpt lat="40.7912115" lon="17.127944"><ele>418.0</ele><time>2026-03-23T09:09:10.684Z</time></trkpt><trkpt lat="40.7911339" lon="17.1280124"><ele>418.0</ele><time>2026-03-23T09:09:12.644Z</time></trkpt><trkpt lat="40.7910507" lon="17.1280842"><ele>418.0</ele><time>2026-03-23T09:09:14.655Z</time></trkpt><trkpt lat="40.790966" lon="17.1281512"><ele>417.4</ele><time>2026-03-23T09:09:16.658Z</time></trkpt><trkpt lat="40.7908676" lon="17.1282196"><ele>416.79999999999995</ele><time>2026-03-23T09:09:18.66Z</time></trkpt><trkpt lat="40.7907713" lon="17.1283087"><ele>416.2</ele><time>2026-03-23T09:09:20.681Z</time></trkpt><trkpt lat="40.7907265" lon="17.1283681"><ele>415.6</ele><time>2026-03-23T09:09:21.657Z</time></trkpt><trkpt lat="40.7906584" lon="17.1285009"><ele>415.0</ele><time>2026-03-23T09:09:23.653Z</time></trkpt><trkpt lat="40.790627" lon="17.1285732"><ele>415.00000000000006</ele><time>2026-03-23T09:09:24.657Z</time></trkpt><trkpt lat="40.7905976" lon="17.1286493"><ele>415.0</ele><time>2026-03-23T09:09:25.647Z</time></trkpt><trkpt lat="40.790535" lon="17.1287936"><ele>415.0</ele><time>2026-03-23T09:09:27.655Z</time></trkpt><trkpt lat="40.7905035" lon="17.1288664"><ele>415.0</ele><time>2026-03-23T09:09:28.659Z</time></trkpt><trkpt lat="40.790473" lon="17.1289412"><ele>415.00000000000006</ele><time>2026-03-23T09:09:29.647Z</time></trkpt><trkpt lat="40.7904405" lon="17.1290243"><ele>415.0</ele><time>2026-03-23T09:09:30.658Z</time></trkpt><trkpt lat="40.7904041" lon="17.1291011"><ele>414.83333333333337</ele><time>2026-03-23T09:09:31.642Z</time></trkpt><trkpt lat="40.7903716" lon="17.12918"><ele>414.6666666666667</ele><time>2026-03-23T09:09:32.653Z</time></trkpt><trkpt lat="40.7903377" lon="17.1292613"><ele>414.5</ele><time>2026-03-23T09:09:33.648Z</time></trkpt><trkpt lat="40.7903047" lon="17.1293401"><ele>414.33333333333337</ele><time>2026-03-23T09:09:34.656Z</time></trkpt><trkpt lat="40.7902731" lon="17.1294219"><ele>414.1666666666667</ele><time>2026-03-23T09:09:35.651Z</time></trkpt><trkpt lat="40.7902183" lon="17.1295625"><ele>414.0</ele><time>2026-03-23T09:09:37.649Z</time></trkpt><trkpt lat="40.7901606" lon="17.1297063"><ele>414.0</ele><time>2026-03-23T09:09:39.655Z</time></trkpt><trkpt lat="40.7900974" lon="17.1298418"><ele>414.0</ele><time>2026-03-23T09:09:41.652Z</time></trkpt><trkpt lat="40.7900375" lon="17.1299674"><ele>414.0</ele><time>2026-03-23T09:09:43.647Z</time></trkpt><trkpt lat="40.7899842" lon="17.1300857"><ele>414.0</ele><time>2026-03-23T09:09:45.648Z</time></trkpt><trkpt lat="40.7899306" lon="17.1301939"><ele>414.0</ele><time>2026-03-23T09:09:47.642Z</time></trkpt><trkpt lat="40.7898783" lon="17.1302968"><ele>414.2</ele><time>2026-03-23T09:09:49.654Z</time></trkpt><trkpt lat="40.7898315" lon="17.1304161"><ele>414.4</ele><time>2026-03-23T09:09:51.67Z</time></trkpt><trkpt lat="40.789788" lon="17.1305258"><ele>414.6</ele><time>2026-03-23T09:09:53.65Z</time></trkpt><trkpt lat="40.7897411" lon="17.1306304"><ele>414.8</ele><time>2026-03-23T09:09:55.645Z</time></trkpt><trkpt lat="40.7896897" lon="17.130739"><ele>415.0</ele><time>2026-03-23T09:09:57.662Z</time></trkpt><trkpt lat="40.7896451" lon="17.1308482"><ele>415.00000000000006</ele><time>2026-03-23T09:09:59.641Z</time></trkpt><trkpt lat="40.7895998" lon="17.1309486"><ele>415.0</ele><time>2026-03-23T09:10:01.639Z</time></trkpt><trkpt lat="40.7895545" lon="17.1310422"><ele>415.0</ele><time>2026-03-23T09:10:03.649Z</time></trkpt><trkpt lat="40.7895154" lon="17.1311347"><ele>415.0</ele><time>2026-03-23T09:10:05.673Z</time></trkpt><trkpt lat="40.7894835" lon="17.1312235"><ele>415.00000000000006</ele><time>2026-03-23T09:10:07.664Z</time></trkpt><trkpt lat="40.7894446" lon="17.1313123"><ele>415.0</ele><time>2026-03-23T09:10:09.66Z</time></trkpt><trkpt lat="40.789403" lon="17.1313972"><ele>415.00000000000006</ele><time>2026-03-23T09:10:11.651Z</time></trkpt><trkpt lat="40.7893567" lon="17.1314919"><ele>415.0</ele><time>2026-03-23T09:10:13.654Z</time></trkpt><trkpt lat="40.789315" lon="17.1315929"><ele>415.0</ele><time>2026-03-23T09:10:15.665Z</time></trkpt><trkpt lat="40.7892826" lon="17.1316819"><ele>415.0</ele><time>2026-03-23T09:10:17.643Z</time></trkpt><trkpt lat="40.7892582" lon="17.1317763"><ele>415.00000000000006</ele><time>2026-03-23T09:10:19.66Z</time></trkpt><trkpt lat="40.7892535" lon="17.1318701"><ele>415.0</ele><time>2026-03-23T09:10:21.654Z</time></trkpt><trkpt lat="40.7892987" lon="17.1319354"><ele>415.00000000000006</ele><time>2026-03-23T09:10:23.655Z</time></trkpt><trkpt lat="40.7893718" lon="17.1319793"><ele>415.0</ele><time>2026-03-23T09:10:25.651Z</time></trkpt><trkpt lat="40.7894411" lon="17.132009"><ele>415.0</ele><time>2026-03-23T09:10:27.668Z</time></trkpt><trkpt lat="40.7895054" lon="17.132058"><ele>415.0</ele><time>2026-03-23T09:10:29.654Z</time></trkpt><trkpt lat="40.7895713" lon="17.1321332"><ele>415.00000000000006</ele><time>2026-03-23T09:10:32.661Z</time></trkpt><trkpt lat="40.7895075" lon="17.1322212"><ele>415.0</ele><time>2026-03-23T09:10:37.645Z</time></trkpt><trkpt lat="40.7894447" lon="17.1322557"><ele>415.00000000000006</ele><time>2026-03-23T09:10:39.659Z</time></trkpt><trkpt lat="40.7893595" lon="17.1322772"><ele>415.0</ele><time>2026-03-23T09:10:42.646Z</time></trkpt><trkpt lat="40.7892817" lon="17.1323243"><ele>415.0</ele><time>2026-03-23T09:10:45.654Z</time></trkpt><trkpt lat="40.7892337" lon="17.1324152"><ele>415.0</ele><time>2026-03-23T09:10:48.651Z</time></trkpt><trkpt lat="40.7892018" lon="17.1324947"><ele>415.00000000000006</ele><time>2026-03-23T09:10:52.65Z</time></trkpt><trkpt lat="40.7891968" lon="17.1325886"><ele>415.0</ele><time>2026-03-23T09:10:57.65Z</time></trkpt><trkpt lat="40.789231" lon="17.1326756"><ele>414.83333333333337</ele><time>2026-03-23T09:11:01.653Z</time></trkpt><trkpt lat="40.7892246" lon="17.1327747"><ele>414.6666666666667</ele><time>2026-03-23T09:11:05.648Z</time></trkpt><trkpt lat="40.7892229" lon="17.1328605"><ele>414.5</ele><time>2026-03-23T09:11:08.659Z</time></trkpt><trkpt lat="40.7892562" lon="17.1329538"><ele>414.33333333333337</ele><time>2026-03-23T09:11:11.654Z</time></trkpt><trkpt lat="40.7892984" lon="17.1330411"><ele>414.1666666666667</ele><time>2026-03-23T09:11:14.658Z</time></trkpt><trkpt lat="40.789361" lon="17.1331311"><ele>414.0</ele><time>2026-03-23T09:11:17.663Z</time></trkpt><trkpt lat="40.7894216" lon="17.1332225"><ele>413.6666666666667</ele><time>2026-03-23T09:11:20.663Z</time></trkpt><trkpt lat="40.7894848" lon="17.133314"><ele>413.33333333333337</ele><time>2026-03-23T09:11:23.641Z</time></trkpt><trkpt lat="40.7895404" lon="17.1334078"><ele>413.0</ele><time>2026-03-23T09:11:26.653Z</time></trkpt><trkpt lat="40.789585" lon="17.1334799"><ele>412.6666666666667</ele><time>2026-03-23T09:11:28.659Z</time></trkpt><trkpt lat="40.7896478" lon="17.1335642"><ele>412.33333333333337</ele><time>2026-03-23T09:11:31.662Z</time></trkpt><trkpt lat="40.7896993" lon="17.1336705"><ele>412.0</ele><time>2026-03-23T09:11:34.663Z</time></trkpt><trkpt lat="40.7897336" lon="17.1337522"><ele>411.99999999999994</ele><time>2026-03-23T09:11:36.686Z</time></trkpt><trkpt lat="40.78977" lon="17.1338228"><ele>412.0</ele><time>2026-03-23T09:11:38.667Z</time></trkpt><trkpt lat="40.7898339" lon="17.1338183"><ele>412.0</ele><time>2026-03-23T09:11:41.653Z</time></trkpt><trkpt lat="40.7898939" lon="17.1338569"><ele>412.0</ele><time>2026-03-23T09:11:47.645Z</time></trkpt><trkpt lat="40.7898291" lon="17.1338804"><ele>412.0</ele><time>2026-03-23T09:14:41.649Z</time></trkpt><trkpt lat="40.7898423" lon="17.1339659"><ele>411.99999999999994</ele><time>2026-03-23T09:14:47.649Z</time></trkpt><trkpt lat="40.7898817" lon="17.1340404"><ele>412.0</ele><time>2026-03-23T09:14:50.654Z</time></trkpt><trkpt lat="40.7899542" lon="17.1340734"><ele>412.00000000000006</ele><time>2026-03-23T09:14:53.655Z</time></trkpt><trkpt lat="40.7900382" lon="17.1340476"><ele>412.0</ele><time>2026-03-23T09:14:56.67Z</time></trkpt><trkpt lat="40.7900821" lon="17.1339695"><ele>412.0</ele><time>2026-03-23T09:14:58.642Z</time></trkpt><trkpt lat="40.790126" lon="17.1338798"><ele>412.0</ele><time>2026-03-23T09:15:00.657Z</time></trkpt><trkpt lat="40.7901859" lon="17.1337919"><ele>412.00000000000006</ele><time>2026-03-23T09:15:02.671Z</time></trkpt><trkpt lat="40.7902312" lon="17.1337219"><ele>412.0</ele><time>2026-03-23T09:15:04.645Z</time></trkpt><trkpt lat="40.7902844" lon="17.1336402"><ele>411.33333333333337</ele><time>2026-03-23T09:15:06.651Z</time></trkpt><trkpt lat="40.7903414" lon="17.1335777"><ele>410.6666666666667</ele><time>2026-03-23T09:15:08.665Z</time></trkpt><trkpt lat="40.7904126" lon="17.1335979"><ele>410.0</ele><time>2026-03-23T09:15:11.645Z</time></trkpt><trkpt lat="40.7904425" lon="17.1336952"><ele>409.33333333333337</ele><time>2026-03-23T09:15:16.651Z</time></trkpt><trkpt lat="40.7903616" lon="17.1337659"><ele>408.6666666666667</ele><time>2026-03-23T09:15:19.646Z</time></trkpt><trkpt lat="40.7903008" lon="17.1338094"><ele>408.0</ele><time>2026-03-23T09:15:21.653Z</time></trkpt><trkpt lat="40.7902524" lon="17.1338693"><ele>408.0</ele><time>2026-03-23T09:15:23.668Z</time></trkpt><trkpt lat="40.7901994" lon="17.1339454"><ele>408.0</ele><time>2026-03-23T09:15:26.657Z</time></trkpt><trkpt lat="40.7901452" lon="17.1340309"><ele>408.0</ele><time>2026-03-23T09:15:29.679Z</time></trkpt><trkpt lat="40.7900976" lon="17.1340865"><ele>408.0</ele><time>2026-03-23T09:15:31.652Z</time></trkpt><trkpt lat="40.7900371" lon="17.1341189"><ele>408.0</ele><time>2026-03-23T09:15:33.656Z</time></trkpt><trkpt lat="40.789951" lon="17.1341229"><ele>408.0</ele><time>2026-03-23T09:15:36.649Z</time></trkpt><trkpt lat="40.7898889" lon="17.1340687"><ele>408.57142857142856</ele><time>2026-03-23T09:15:46.659Z</time></trkpt><trkpt lat="40.7898433" lon="17.1339995"><ele>409.14285714285717</ele><time>2026-03-23T09:15:52.655Z</time></trkpt><trkpt lat="40.7898112" lon="17.1339243"><ele>409.71428571428567</ele><time>2026-03-23T09:15:57.652Z</time></trkpt><trkpt lat="40.7897749" lon="17.1338533"><ele>410.2857142857143</ele><time>2026-03-23T09:16:09.652Z</time></trkpt><trkpt lat="40.7897253" lon="17.1337754"><ele>410.85714285714283</ele><time>2026-03-23T09:16:16.655Z</time></trkpt><trkpt lat="40.7896822" lon="17.1337039"><ele>411.4285714285714</ele><time>2026-03-23T09:16:20.654Z</time></trkpt><trkpt lat="40.789641" lon="17.1336304"><ele>412.0</ele><time>2026-03-23T09:16:25.667Z</time></trkpt><trkpt lat="40.7895948" lon="17.1335652"><ele>411.99999999999994</ele><time>2026-03-23T09:16:29.645Z</time></trkpt><trkpt lat="40.7895695" lon="17.1334854"><ele>412.0</ele><time>2026-03-23T09:16:41.661Z</time></trkpt><trkpt lat="40.7895214" lon="17.133424"><ele>412.0</ele><time>2026-03-23T09:16:50.666Z</time></trkpt><trkpt lat="40.7894821" lon="17.1333466"><ele>412.0</ele><time>2026-03-23T09:16:56.652Z</time></trkpt><trkpt lat="40.7894252" lon="17.1332846"><ele>412.0</ele><time>2026-03-23T09:17:00.663Z</time></trkpt><trkpt lat="40.7893638" lon="17.1331963"><ele>411.99999999999994</ele><time>2026-03-23T09:17:03.643Z</time></trkpt><trkpt lat="40.789319" lon="17.1331215"><ele>412.0</ele><time>2026-03-23T09:17:05.669Z</time></trkpt><trkpt lat="40.7892775" lon="17.1330538"><ele>412.2857142857143</ele><time>2026-03-23T09:17:07.639Z</time></trkpt><trkpt lat="40.7892406" lon="17.1329789"><ele>412.57142857142856</ele><time>2026-03-23T09:17:09.647Z</time></trkpt><trkpt lat="40.7892094" lon="17.1328961"><ele>412.8571428571429</ele><time>2026-03-23T09:17:11.65Z</time></trkpt><trkpt lat="40.7891805" lon="17.1328158"><ele>413.1428571428571</ele><time>2026-03-23T09:17:13.654Z</time></trkpt><trkpt lat="40.7891555" lon="17.1327242"><ele>413.42857142857144</ele><time>2026-03-23T09:17:15.643Z</time></trkpt><trkpt lat="40.7891401" lon="17.1326273"><ele>413.7142857142857</ele><time>2026-03-23T09:17:17.657Z</time></trkpt><trkpt lat="40.7891289" lon="17.1325305"><ele>414.0</ele><time>2026-03-23T09:17:19.652Z</time></trkpt><trkpt lat="40.7891235" lon="17.1324414"><ele>414.14285714285717</ele><time>2026-03-23T09:17:21.652Z</time></trkpt><trkpt lat="40.7891257" lon="17.132349"><ele>414.2857142857143</ele><time>2026-03-23T09:17:23.654Z</time></trkpt><trkpt lat="40.7891423" lon="17.1322585"><ele>414.42857142857144</ele><time>2026-03-23T09:17:25.646Z</time></trkpt><trkpt lat="40.7891585" lon="17.1321764"><ele>414.57142857142856</ele><time>2026-03-23T09:17:27.654Z</time></trkpt><trkpt lat="40.7891819" lon="17.1320977"><ele>414.7142857142857</ele><time>2026-03-23T09:17:29.667Z</time></trkpt><trkpt lat="40.789224" lon="17.1320223"><ele>414.8571428571429</ele><time>2026-03-23T09:17:31.657Z</time></trkpt><trkpt lat="40.7892945" lon="17.131994"><ele>415.0</ele><time>2026-03-23T09:17:33.648Z</time></trkpt><trkpt lat="40.7893628" lon="17.1319917"><ele>415.0</ele><time>2026-03-23T09:17:35.652Z</time></trkpt><trkpt lat="40.7894285" lon="17.1320118"><ele>415.0</ele><time>2026-03-23T09:17:37.649Z</time></trkpt><trkpt lat="40.7895208" lon="17.1320182"><ele>415.0</ele><time>2026-03-23T09:17:40.66Z</time></trkpt><trkpt lat="40.7895742" lon="17.1319628"><ele>415.0</ele><time>2026-03-23T09:17:42.663Z</time></trkpt><trkpt lat="40.7896065" lon="17.1318894"><ele>415.0</ele><time>2026-03-23T09:17:44.653Z</time></trkpt><trkpt lat="40.7896419" lon="17.1318073"><ele>415.0</ele><time>2026-03-23T09:17:46.656Z</time></trkpt><trkpt lat="40.7896736" lon="17.1317338"><ele>415.0</ele><time>2026-03-23T09:17:48.683Z</time></trkpt><trkpt lat="40.789716" lon="17.1316248"><ele>415.0</ele><time>2026-03-23T09:17:51.657Z</time></trkpt><trkpt lat="40.789749" lon="17.131548"><ele>415.0</ele><time>2026-03-23T09:17:53.648Z</time></trkpt><trkpt lat="40.7897824" lon="17.1314605"><ele>415.0</ele><time>2026-03-23T09:17:55.649Z</time></trkpt><trkpt lat="40.7898185" lon="17.1313685"><ele>415.0</ele><time>2026-03-23T09:17:57.647Z</time></trkpt><trkpt lat="40.7898523" lon="17.1312909"><ele>415.0</ele><time>2026-03-23T09:17:59.651Z</time></trkpt><trkpt lat="40.7898863" lon="17.1312184"><ele>415.0</ele><time>2026-03-23T09:18:01.65Z</time></trkpt><trkpt lat="40.7899314" lon="17.1311145"><ele>415.0</ele><time>2026-03-23T09:18:04.648Z</time></trkpt><trkpt lat="40.7899626" lon="17.1310422"><ele>415.0</ele><time>2026-03-23T09:18:06.656Z</time></trkpt><trkpt lat="40.7900106" lon="17.1309349"><ele>415.0</ele><time>2026-03-23T09:18:09.648Z</time></trkpt><trkpt lat="40.7900395" lon="17.130855"><ele>415.0</ele><time>2026-03-23T09:18:11.664Z</time></trkpt><trkpt lat="40.7900647" lon="17.1307712"><ele>415.0</ele><time>2026-03-23T09:18:13.652Z</time></trkpt><trkpt lat="40.79008" lon="17.1306853"><ele>415.0</ele><time>2026-03-23T09:18:15.645Z</time></trkpt><trkpt lat="40.7901012" lon="17.1306011"><ele>415.0</ele><time>2026-03-23T09:18:17.642Z</time></trkpt><trkpt lat="40.7901339" lon="17.1305166"><ele>415.0</ele><time>2026-03-23T09:18:19.657Z</time></trkpt><trkpt lat="40.7901642" lon="17.1304431"><ele>415.42857142857144</ele><time>2026-03-23T09:18:21.649Z</time></trkpt><trkpt lat="40.7902008" lon="17.1303743"><ele>415.8571428571429</ele><time>2026-03-23T09:18:23.662Z</time></trkpt><trkpt lat="40.7902382" lon="17.1303051"><ele>416.2857142857143</ele><time>2026-03-23T09:18:25.656Z</time></trkpt><trkpt lat="40.7902775" lon="17.1302376"><ele>416.7142857142857</ele><time>2026-03-23T09:18:27.654Z</time></trkpt><trkpt lat="40.7903289" lon="17.1301633"><ele>417.1428571428571</ele><time>2026-03-23T09:18:29.653Z</time></trkpt><trkpt lat="40.7903741" lon="17.130087"><ele>417.57142857142856</ele><time>2026-03-23T09:18:31.653Z</time></trkpt><trkpt lat="40.7904198" lon="17.1300192"><ele>418.0</ele><time>2026-03-23T09:18:33.654Z</time></trkpt><trkpt lat="40.7904611" lon="17.1299513"><ele>417.83333333333337</ele><time>2026-03-23T09:18:35.644Z</time></trkpt><trkpt lat="40.7905271" lon="17.1298622"><ele>417.6666666666667</ele><time>2026-03-23T09:18:38.652Z</time></trkpt><trkpt lat="40.790574" lon="17.1298006"><ele>417.5</ele><time>2026-03-23T09:18:40.65Z</time></trkpt><trkpt lat="40.7906203" lon="17.1297363"><ele>417.33333333333337</ele><time>2026-03-23T09:18:42.652Z</time></trkpt><trkpt lat="40.7906709" lon="17.1296304"><ele>417.1666666666667</ele><time>2026-03-23T09:18:45.653Z</time></trkpt><trkpt lat="40.790709" lon="17.1295623"><ele>417.0</ele><time>2026-03-23T09:18:47.638Z</time></trkpt><trkpt lat="40.7907611" lon="17.1294747"><ele>417.0</ele><time>2026-03-23T09:18:50.663Z</time></trkpt><trkpt lat="40.7908245" lon="17.1293876"><ele>417.0</ele><time>2026-03-23T09:18:53.651Z</time></trkpt><trkpt lat="40.7908771" lon="17.129307"><ele>417.0</ele><time>2026-03-23T09:18:56.661Z</time></trkpt><trkpt lat="40.7909215" lon="17.1292328"><ele>417.0</ele><time>2026-03-23T09:18:59.647Z</time></trkpt><trkpt lat="40.7909241" lon="17.1291425"><ele>417.0</ele><time>2026-03-23T09:19:02.635Z</time></trkpt><trkpt lat="40.7908924" lon="17.1290493"><ele>417.0</ele><time>2026-03-23T09:19:05.65Z</time></trkpt><trkpt lat="40.7908644" lon="17.1289453"><ele>416.7142857142857</ele><time>2026-03-23T09:19:08.656Z</time></trkpt><trkpt lat="40.7908554" lon="17.1288547"><ele>416.4285714285714</ele><time>2026-03-23T09:19:12.648Z</time></trkpt><trkpt lat="40.7908135" lon="17.1287883"><ele>416.1428571428571</ele><time>2026-03-23T09:19:16.656Z</time></trkpt><trkpt lat="40.7908057" lon="17.128692"><ele>415.8571428571429</ele><time>2026-03-23T09:19:19.678Z</time></trkpt><trkpt lat="40.7908063" lon="17.1286073"><ele>415.57142857142856</ele><time>2026-03-23T09:19:21.649Z</time></trkpt><trkpt lat="40.7908051" lon="17.1285205"><ele>415.2857142857143</ele><time>2026-03-23T09:19:23.648Z</time></trkpt><trkpt lat="40.7908175" lon="17.1284369"><ele>415.0</ele><time>2026-03-23T09:19:25.659Z</time></trkpt><trkpt lat="40.7908598" lon="17.1283649"><ele>415.0</ele><time>2026-03-23T09:19:27.647Z</time></trkpt><trkpt lat="40.790922" lon="17.1283259"><ele>415.0</ele><time>2026-03-23T09:19:29.642Z</time></trkpt><trkpt lat="40.7909982" lon="17.1282609"><ele>415.0</ele><time>2026-03-23T09:19:32.644Z</time></trkpt><trkpt lat="40.7910624" lon="17.1282165"><ele>415.0</ele><time>2026-03-23T09:19:34.635Z</time></trkpt><trkpt lat="40.7911135" lon="17.1281674"><ele>415.0</ele><time>2026-03-23T09:19:36.656Z</time></trkpt><trkpt lat="40.7911726" lon="17.1281286"><ele>415.0</ele><time>2026-03-23T09:19:38.648Z</time></trkpt><trkpt lat="40.7912334" lon="17.128072"><ele>415.0</ele><time>2026-03-23T09:19:40.676Z</time></trkpt><trkpt lat="40.791293" lon="17.1280326"><ele>415.50000000000006</ele><time>2026-03-23T09:19:42.641Z</time></trkpt><trkpt lat="40.7913481" lon="17.1279912"><ele>416.0</ele><time>2026-03-23T09:19:44.646Z</time></trkpt><trkpt lat="40.7914026" lon="17.1279421"><ele>416.5</ele><time>2026-03-23T09:19:46.649Z</time></trkpt><trkpt lat="40.7914698" lon="17.1278915"><ele>417.0</ele><time>2026-03-23T09:19:49.653Z</time></trkpt><trkpt lat="40.7915502" lon="17.1278289"><ele>417.50000000000006</ele><time>2026-03-23T09:19:52.64Z</time></trkpt><trkpt lat="40.7916329" lon="17.1277682"><ele>418.0</ele><time>2026-03-23T09:19:55.641Z</time></trkpt><trkpt lat="40.7916849" lon="17.1277176"><ele>418.00000000000006</ele><time>2026-03-23T09:19:57.65Z</time></trkpt><trkpt lat="40.7917443" lon="17.1276705"><ele>418.0</ele><time>2026-03-23T09:19:59.655Z</time></trkpt><trkpt lat="40.7918254" lon="17.1276119"><ele>418.0</ele><time>2026-03-23T09:20:01.646Z</time></trkpt><trkpt lat="40.791911" lon="17.1275494"><ele>418.0</ele><time>2026-03-23T09:20:03.644Z</time></trkpt><trkpt lat="40.7919912" lon="17.1274948"><ele>418.00000000000006</ele><time>2026-03-23T09:20:05.648Z</time></trkpt><trkpt lat="40.7920557" lon="17.1274437"><ele>418.0</ele><time>2026-03-23T09:20:07.655Z</time></trkpt><trkpt lat="40.7921168" lon="17.1273771"><ele>418.50000000000006</ele><time>2026-03-23T09:20:09.651Z</time></trkpt><trkpt lat="40.7921826" lon="17.127329"><ele>419.0</ele><time>2026-03-23T09:20:11.644Z</time></trkpt><trkpt lat="40.7922548" lon="17.1272817"><ele>419.5</ele><time>2026-03-23T09:20:13.642Z</time></trkpt><trkpt lat="40.7923227" lon="17.1272343"><ele>420.0</ele><time>2026-03-23T09:20:15.645Z</time></trkpt><trkpt lat="40.7923846" lon="17.1271982"><ele>420.50000000000006</ele><time>2026-03-23T09:20:17.64Z</time></trkpt><trkpt lat="40.7924507" lon="17.1271556"><ele>421.0</ele><time>2026-03-23T09:20:20.657Z</time></trkpt><trkpt lat="40.7925229" lon="17.1271001"><ele>421.00000000000006</ele><time>2026-03-23T09:20:24.655Z</time></trkpt><trkpt lat="40.7925911" lon="17.1270352"><ele>421.0</ele><time>2026-03-23T09:20:27.633Z</time></trkpt><trkpt lat="40.7926746" lon="17.1269768"><ele>421.0</ele><time>2026-03-23T09:20:30.637Z</time></trkpt><trkpt lat="40.7927389" lon="17.1269247"><ele>421.0</ele><time>2026-03-23T09:20:32.651Z</time></trkpt><trkpt lat="40.7928004" lon="17.1268872"><ele>421.00000000000006</ele><time>2026-03-23T09:20:34.649Z</time></trkpt><trkpt lat="40.7928606" lon="17.1268453"><ele>421.0</ele><time>2026-03-23T09:20:36.653Z</time></trkpt><trkpt lat="40.792917" lon="17.1267958"><ele>421.14285714285717</ele><time>2026-03-23T09:20:38.674Z</time></trkpt><trkpt lat="40.7929732" lon="17.1267495"><ele>421.2857142857143</ele><time>2026-03-23T09:20:40.653Z</time></trkpt><trkpt lat="40.7930319" lon="17.1267011"><ele>421.42857142857144</ele><time>2026-03-23T09:20:42.646Z</time></trkpt><trkpt lat="40.793093" lon="17.1266549"><ele>421.57142857142856</ele><time>2026-03-23T09:20:44.656Z</time></trkpt><trkpt lat="40.7931523" lon="17.1266067"><ele>421.7142857142857</ele><time>2026-03-23T09:20:46.648Z</time></trkpt><trkpt lat="40.7932129" lon="17.1265651"><ele>421.8571428571429</ele><time>2026-03-23T09:20:48.653Z</time></trkpt><trkpt lat="40.7932702" lon="17.1265231"><ele>422.0</ele><time>2026-03-23T09:20:51.648Z</time></trkpt><trkpt lat="40.7933411" lon="17.1264724"><ele>422.16666666666663</ele><time>2026-03-23T09:20:57.646Z</time></trkpt><trkpt lat="40.7934149" lon="17.126417"><ele>422.3333333333333</ele><time>2026-03-23T09:21:00.648Z</time></trkpt><trkpt lat="40.7934758" lon="17.1263662"><ele>422.5</ele><time>2026-03-23T09:21:02.653Z</time></trkpt><trkpt lat="40.7935386" lon="17.1263096"><ele>422.66666666666663</ele><time>2026-03-23T09:21:04.677Z</time></trkpt><trkpt lat="40.7936076" lon="17.1262554"><ele>422.8333333333333</ele><time>2026-03-23T09:21:06.644Z</time></trkpt><trkpt lat="40.7936667" lon="17.1262099"><ele>423.0</ele><time>2026-03-23T09:21:08.654Z</time></trkpt><trkpt lat="40.7937372" lon="17.1261717"><ele>423.0</ele><time>2026-03-23T09:21:11.645Z</time></trkpt><trkpt lat="40.7937978" lon="17.1261235"><ele>423.0</ele><time>2026-03-23T09:21:31.652Z</time></trkpt><trkpt lat="40.7938637" lon="17.1260912"><ele>423.0</ele><time>2026-03-23T09:21:39.64Z</time></trkpt><trkpt lat="40.7939506" lon="17.1260341"><ele>423.0</ele><time>2026-03-23T09:22:05.645Z</time></trkpt><trkpt lat="40.7940019" lon="17.1259549"><ele>423.0</ele><time>2026-03-23T09:22:07.633Z</time></trkpt><trkpt lat="40.7940858" lon="17.1258928"><ele>423.0</ele><time>2026-03-23T09:22:09.67Z</time></trkpt><trkpt lat="40.7941617" lon="17.1258514"><ele>423.0</ele><time>2026-03-23T09:22:11.651Z</time></trkpt><trkpt lat="40.7942316" lon="17.1258013"><ele>423.0</ele><time>2026-03-23T09:22:13.662Z</time></trkpt><trkpt lat="40.7942957" lon="17.1257458"><ele>423.0</ele><time>2026-03-23T09:22:15.639Z</time></trkpt><trkpt lat="40.7943698" lon="17.125677"><ele>423.0</ele><time>2026-03-23T09:22:17.658Z</time></trkpt><trkpt lat="40.7944662" lon="17.1256093"><ele>423.0</ele><time>2026-03-23T09:22:19.634Z</time></trkpt><trkpt lat="40.7945613" lon="17.1255518"><ele>422.79999999999995</ele><time>2026-03-23T09:22:21.647Z</time></trkpt><trkpt lat="40.7946506" lon="17.1254946"><ele>422.6</ele><time>2026-03-23T09:22:23.645Z</time></trkpt><trkpt lat="40.7947338" lon="17.1254291"><ele>422.4</ele><time>2026-03-23T09:22:25.639Z</time></trkpt><trkpt lat="40.7948127" lon="17.1253651"><ele>422.20000000000005</ele><time>2026-03-23T09:22:27.643Z</time></trkpt><trkpt lat="40.7948901" lon="17.1253152"><ele>422.0</ele><time>2026-03-23T09:22:29.638Z</time></trkpt><trkpt lat="40.7949846" lon="17.1252618"><ele>422.0</ele><time>2026-03-23T09:22:31.645Z</time></trkpt><trkpt lat="40.7950876" lon="17.125239"><ele>422.0</ele><time>2026-03-23T09:22:33.666Z</time></trkpt><trkpt lat="40.7951886" lon="17.1252006"><ele>422.0</ele><time>2026-03-23T09:22:35.638Z</time></trkpt><trkpt lat="40.7952885" lon="17.1251661"><ele>422.0</ele><time>2026-03-23T09:22:37.649Z</time></trkpt><trkpt lat="40.7953965" lon="17.125117"><ele>422.0</ele><time>2026-03-23T09:22:39.65Z</time></trkpt><trkpt lat="40.7954964" lon="17.1250311"><ele>421.8</ele><time>2026-03-23T09:22:41.656Z</time></trkpt><trkpt lat="40.7955818" lon="17.1249556"><ele>421.6</ele><time>2026-03-23T09:22:43.66Z</time></trkpt><trkpt lat="40.7956551" lon="17.1248739"><ele>421.40000000000003</ele><time>2026-03-23T09:22:45.675Z</time></trkpt><trkpt lat="40.79572" lon="17.1247836"><ele>421.20000000000005</ele><time>2026-03-23T09:22:47.65Z</time></trkpt><trkpt lat="40.7957731" lon="17.1246985"><ele>421.0</ele><time>2026-03-23T09:22:49.646Z</time></trkpt><trkpt lat="40.7958293" lon="17.1245977"><ele>421.0</ele><time>2026-03-23T09:22:51.643Z</time></trkpt><trkpt lat="40.7958876" lon="17.124481"><ele>421.0</ele><time>2026-03-23T09:22:53.649Z</time></trkpt><trkpt lat="40.7959418" lon="17.1243739"><ele>421.0</ele><time>2026-03-23T09:22:55.637Z</time></trkpt><trkpt lat="40.7959933" lon="17.1242833"><ele>421.0</ele><time>2026-03-23T09:22:57.647Z</time></trkpt><trkpt lat="40.7960516" lon="17.1241891"><ele>421.0</ele><time>2026-03-23T09:22:59.665Z</time></trkpt><trkpt lat="40.7960898" lon="17.1240882"><ele>420.6</ele><time>2026-03-23T09:23:01.646Z</time></trkpt><trkpt lat="40.7961354" lon="17.1240024"><ele>420.20000000000005</ele><time>2026-03-23T09:23:03.652Z</time></trkpt><trkpt lat="40.7961789" lon="17.1239064"><ele>419.79999999999995</ele><time>2026-03-23T09:23:05.644Z</time></trkpt><trkpt lat="40.7962319" lon="17.1238049"><ele>419.4</ele><time>2026-03-23T09:23:07.644Z</time></trkpt><trkpt lat="40.7962929" lon="17.1236763"><ele>419.0</ele><time>2026-03-23T09:23:09.64Z</time></trkpt><trkpt lat="40.7963391" lon="17.123569"><ele>418.99999999999994</ele><time>2026-03-23T09:23:11.645Z</time></trkpt><trkpt lat="40.7963866" lon="17.1234736"><ele>419.0</ele><time>2026-03-23T09:23:13.646Z</time></trkpt><trkpt lat="40.7964311" lon="17.1233764"><ele>419.0</ele><time>2026-03-23T09:23:15.652Z</time></trkpt><trkpt lat="40.7964737" lon="17.123285"><ele>419.0</ele><time>2026-03-23T09:23:17.642Z</time></trkpt><trkpt lat="40.7965088" lon="17.1231895"><ele>418.99999999999994</ele><time>2026-03-23T09:23:19.644Z</time></trkpt><trkpt lat="40.7965518" lon="17.1230918"><ele>419.0</ele><time>2026-03-23T09:23:21.651Z</time></trkpt><trkpt lat="40.7965901" lon="17.1230075"><ele>419.1428571428571</ele><time>2026-03-23T09:23:23.676Z</time></trkpt><trkpt lat="40.7966207" lon="17.1229195"><ele>419.2857142857143</ele><time>2026-03-23T09:23:25.643Z</time></trkpt><trkpt lat="40.7966458" lon="17.1228328"><ele>419.42857142857144</ele><time>2026-03-23T09:23:27.652Z</time></trkpt><trkpt lat="40.7966369" lon="17.1227438"><ele>419.57142857142856</ele><time>2026-03-23T09:23:29.649Z</time></trkpt><trkpt lat="40.7965917" lon="17.122661"><ele>419.7142857142857</ele><time>2026-03-23T09:23:31.645Z</time></trkpt><trkpt lat="40.7965442" lon="17.1225857"><ele>419.85714285714283</ele><time>2026-03-23T09:23:33.642Z</time></trkpt><trkpt lat="40.7965036" lon="17.1225205"><ele>420.0</ele><time>2026-03-23T09:23:35.648Z</time></trkpt><trkpt lat="40.7964417" lon="17.1224354"><ele>419.7142857142857</ele><time>2026-03-23T09:23:38.65Z</time></trkpt><trkpt lat="40.7964173" lon="17.1223468"><ele>419.42857142857144</ele><time>2026-03-23T09:23:41.651Z</time></trkpt><trkpt lat="40.7964492" lon="17.1222703"><ele>419.1428571428571</ele><time>2026-03-23T09:23:44.643Z</time></trkpt><trkpt lat="40.7964826" lon="17.122192"><ele>418.8571428571429</ele><time>2026-03-23T09:23:47.645Z</time></trkpt><trkpt lat="40.7965342" lon="17.1221407"><ele>418.57142857142856</ele><time>2026-03-23T09:23:50.648Z</time></trkpt><trkpt lat="40.7965936" lon="17.1220884"><ele>418.2857142857143</ele><time>2026-03-23T09:23:53.653Z</time></trkpt><trkpt lat="40.7966514" lon="17.1220107"><ele>418.0</ele><time>2026-03-23T09:23:56.645Z</time></trkpt><trkpt lat="40.7967164" lon="17.1219369"><ele>418.00000000000006</ele><time>2026-03-23T09:23:59.65Z</time></trkpt><trkpt lat="40.7967716" lon="17.1218482"><ele>418.0</ele><time>2026-03-23T09:24:02.65Z</time></trkpt><trkpt lat="40.7968358" lon="17.1217544"><ele>418.0</ele><time>2026-03-23T09:24:05.645Z</time></trkpt><trkpt lat="40.7968919" lon="17.1216652"><ele>418.0</ele><time>2026-03-23T09:24:08.656Z</time></trkpt><trkpt lat="40.7969281" lon="17.1215937"><ele>418.00000000000006</ele><time>2026-03-23T09:24:10.656Z</time></trkpt><trkpt lat="40.7969794" lon="17.1215024"><ele>418.0</ele><time>2026-03-23T09:24:13.652Z</time></trkpt><trkpt lat="40.7970296" lon="17.1214099"><ele>417.85714285714283</ele><time>2026-03-23T09:24:16.654Z</time></trkpt><trkpt lat="40.7971003" lon="17.1213361"><ele>417.71428571428567</ele><time>2026-03-23T09:24:20.645Z</time></trkpt><trkpt lat="40.7971527" lon="17.1212688"><ele>417.57142857142856</ele><time>2026-03-23T09:24:23.64Z</time></trkpt><trkpt lat="40.7972038" lon="17.1212171"><ele>417.42857142857144</ele><time>2026-03-23T09:24:27.634Z</time></trkpt><trkpt lat="40.7971454" lon="17.1212745"><ele>417.2857142857143</ele><time>2026-03-23T09:26:22.656Z</time></trkpt><trkpt lat="40.7970967" lon="17.1213309"><ele>417.14285714285717</ele><time>2026-03-23T09:26:24.654Z</time></trkpt><trkpt lat="40.797051" lon="17.1213973"><ele>417.0</ele><time>2026-03-23T09:26:26.654Z</time></trkpt><trkpt lat="40.7970033" lon="17.1214659"><ele>417.0</ele><time>2026-03-23T09:26:28.647Z</time></trkpt><trkpt lat="40.796954" lon="17.1215356"><ele>417.0</ele><time>2026-03-23T09:26:30.655Z</time></trkpt><trkpt lat="40.7969083" lon="17.1216005"><ele>417.0</ele><time>2026-03-23T09:26:32.641Z</time></trkpt><trkpt lat="40.7968695" lon="17.121673"><ele>417.0</ele><time>2026-03-23T09:26:34.647Z</time></trkpt><trkpt lat="40.7968019" lon="17.1217594"><ele>417.0</ele><time>2026-03-23T09:26:37.64Z</time></trkpt><trkpt lat="40.7967365" lon="17.1218323"><ele>417.0</ele><time>2026-03-23T09:26:40.651Z</time></trkpt><trkpt lat="40.7967882" lon="17.1217699"><ele>417.0</ele><time>2026-03-23T09:26:49.647Z</time></trkpt><trkpt lat="40.7968455" lon="17.1216849"><ele>417.0</ele><time>2026-03-23T09:26:52.646Z</time></trkpt><trkpt lat="40.7969107" lon="17.1215982"><ele>417.0</ele><time>2026-03-23T09:26:55.661Z</time></trkpt><trkpt lat="40.7969633" lon="17.1215085"><ele>417.0</ele><time>2026-03-23T09:26:58.639Z</time></trkpt><trkpt lat="40.7969643" lon="17.1214194"><ele>417.0</ele><time>2026-03-23T09:27:01.645Z</time></trkpt><trkpt lat="40.796904" lon="17.121367"><ele>417.0</ele><time>2026-03-23T09:27:04.64Z</time></trkpt><trkpt lat="40.7969492" lon="17.1212623"><ele>417.0</ele><time>2026-03-23T09:27:07.642Z</time></trkpt><trkpt lat="40.7969861" lon="17.1211843"><ele>417.0</ele><time>2026-03-23T09:27:09.65Z</time></trkpt><trkpt lat="40.7970262" lon="17.1211117"><ele>417.0</ele><time>2026-03-23T09:27:11.64Z</time></trkpt><trkpt lat="40.7970645" lon="17.1210402"><ele>417.0</ele><time>2026-03-23T09:27:13.636Z</time></trkpt><trkpt lat="40.7971225" lon="17.1209527"><ele>417.0</ele><time>2026-03-23T09:27:16.654Z</time></trkpt><trkpt lat="40.7971619" lon="17.1208798"><ele>417.0</ele><time>2026-03-23T09:27:18.651Z</time></trkpt><trkpt lat="40.7972006" lon="17.1208072"><ele>417.0</ele><time>2026-03-23T09:27:20.641Z</time></trkpt><trkpt lat="40.7972367" lon="17.1207323"><ele>416.6666666666667</ele><time>2026-03-23T09:27:22.635Z</time></trkpt><trkpt lat="40.797278" lon="17.1206607"><ele>416.33333333333337</ele><time>2026-03-23T09:27:24.65Z</time></trkpt><trkpt lat="40.79732" lon="17.120592"><ele>416.0</ele><time>2026-03-23T09:27:26.663Z</time></trkpt><trkpt lat="40.7973649" lon="17.1204877"><ele>415.6666666666667</ele><time>2026-03-23T09:27:29.633Z</time></trkpt><trkpt lat="40.7974236" lon="17.1204036"><ele>415.33333333333337</ele><time>2026-03-23T09:27:32.643Z</time></trkpt><trkpt lat="40.7974785" lon="17.1203068"><ele>415.0</ele><time>2026-03-23T09:27:35.637Z</time></trkpt><trkpt lat="40.7975181" lon="17.1202113"><ele>415.00000000000006</ele><time>2026-03-23T09:27:38.644Z</time></trkpt><trkpt lat="40.797563" lon="17.120135"><ele>415.0</ele><time>2026-03-23T09:27:41.646Z</time></trkpt><trkpt lat="40.7976392" lon="17.1202078"><ele>415.0</ele><time>2026-03-23T09:27:58.642Z</time></trkpt><trkpt lat="40.7976995" lon="17.1202666"><ele>415.0</ele><time>2026-03-23T09:28:00.643Z</time></trkpt><trkpt lat="40.797771" lon="17.1203431"><ele>415.00000000000006</ele><time>2026-03-23T09:28:03.647Z</time></trkpt><trkpt lat="40.797835" lon="17.1204095"><ele>415.0</ele><time>2026-03-23T09:28:06.648Z</time></trkpt><trkpt lat="40.7978851" lon="17.1204785"><ele>414.33333333333337</ele><time>2026-03-23T09:28:08.646Z</time></trkpt><trkpt lat="40.7979509" lon="17.120502"><ele>413.6666666666667</ele><time>2026-03-23T09:28:10.646Z</time></trkpt><trkpt lat="40.797992" lon="17.1204261"><ele>413.0</ele><time>2026-03-23T09:28:12.646Z</time></trkpt><trkpt lat="40.7980011" lon="17.120321"><ele>412.33333333333337</ele><time>2026-03-23T09:28:14.652Z</time></trkpt><trkpt lat="40.7979879" lon="17.1202024"><ele>411.6666666666667</ele><time>2026-03-23T09:28:18.646Z</time></trkpt><trkpt lat="40.7980145" lon="17.1201249"><ele>411.0</ele><time>2026-03-23T09:28:20.647Z</time></trkpt><trkpt lat="40.7980509" lon="17.1200354"><ele>411.0</ele><time>2026-03-23T09:28:22.646Z</time></trkpt><trkpt lat="40.7980873" lon="17.1199648"><ele>411.0</ele><time>2026-03-23T09:28:24.652Z</time></trkpt><trkpt lat="40.7981454" lon="17.1198752"><ele>411.0</ele><time>2026-03-23T09:28:27.647Z</time></trkpt><trkpt lat="40.798196" lon="17.1197844"><ele>411.0</ele><time>2026-03-23T09:28:30.65Z</time></trkpt><trkpt lat="40.798239" lon="17.1196875"><ele>411.0</ele><time>2026-03-23T09:28:33.64Z</time></trkpt><trkpt lat="40.7982753" lon="17.1195727"><ele>411.0</ele><time>2026-03-23T09:28:36.651Z</time></trkpt><trkpt lat="40.7983151" lon="17.1194568"><ele>411.0</ele><time>2026-03-23T09:28:38.655Z</time></trkpt><trkpt lat="40.7983649" lon="17.1193409"><ele>411.0</ele><time>2026-03-23T09:28:40.657Z</time></trkpt><trkpt lat="40.798411" lon="17.1192428"><ele>411.0</ele><time>2026-03-23T09:28:42.664Z</time></trkpt><trkpt lat="40.7984617" lon="17.1191548"><ele>411.0</ele><time>2026-03-23T09:28:44.648Z</time></trkpt><trkpt lat="40.7985108" lon="17.1190692"><ele>411.0</ele><time>2026-03-23T09:28:46.641Z</time></trkpt><trkpt lat="40.7985508" lon="17.1189762"><ele>411.0</ele><time>2026-03-23T09:28:48.66Z</time></trkpt><trkpt lat="40.7985803" lon="17.1188971"><ele>410.8333333333333</ele><time>2026-03-23T09:28:50.656Z</time></trkpt><trkpt lat="40.7986134" lon="17.118814"><ele>410.66666666666663</ele><time>2026-03-23T09:28:52.651Z</time></trkpt><trkpt lat="40.7986502" lon="17.1187259"><ele>410.5</ele><time>2026-03-23T09:28:54.653Z</time></trkpt><trkpt lat="40.7987007" lon="17.1186223"><ele>410.3333333333333</ele><time>2026-03-23T09:28:56.653Z</time></trkpt><trkpt lat="40.7987502" lon="17.1185057"><ele>410.16666666666663</ele><time>2026-03-23T09:28:58.639Z</time></trkpt><trkpt lat="40.7987938" lon="17.1183971"><ele>410.0</ele><time>2026-03-23T09:29:00.67Z</time></trkpt><trkpt lat="40.7988471" lon="17.1182852"><ele>409.8333333333333</ele><time>2026-03-23T09:29:02.653Z</time></trkpt><trkpt lat="40.7989029" lon="17.1181595"><ele>409.66666666666663</ele><time>2026-03-23T09:29:04.647Z</time></trkpt><trkpt lat="40.7989544" lon="17.1180426"><ele>409.5</ele><time>2026-03-23T09:29:06.652Z</time></trkpt><trkpt lat="40.7989811" lon="17.1179563"><ele>409.33333333333337</ele><time>2026-03-23T09:29:08.648Z</time></trkpt><trkpt lat="40.7990127" lon="17.1178817"><ele>409.1666666666667</ele><time>2026-03-23T09:29:15.669Z</time></trkpt><trkpt lat="40.7990566" lon="17.1177803"><ele>409.0</ele><time>2026-03-23T09:29:17.649Z</time></trkpt><trkpt lat="40.7991058" lon="17.1176637"><ele>409.0</ele><time>2026-03-23T09:29:19.632Z</time></trkpt><trkpt lat="40.7991538" lon="17.1175558"><ele>409.0</ele><time>2026-03-23T09:29:21.652Z</time></trkpt><trkpt lat="40.7992005" lon="17.1174592"><ele>409.0</ele><time>2026-03-23T09:29:23.636Z</time></trkpt><trkpt lat="40.7992464" lon="17.1173494"><ele>409.0</ele><time>2026-03-23T09:29:25.645Z</time></trkpt><trkpt lat="40.7992918" lon="17.1172345"><ele>409.0</ele><time>2026-03-23T09:29:27.646Z</time></trkpt><trkpt lat="40.7993266" lon="17.1171279"><ele>408.0</ele><time>2026-03-23T09:29:29.65Z</time></trkpt><trkpt lat="40.7993656" lon="17.1170134"><ele>407.0</ele><time>2026-03-23T09:29:31.653Z</time></trkpt><trkpt lat="40.7994054" lon="17.1169081"><ele>406.0</ele><time>2026-03-23T09:29:33.657Z</time></trkpt><trkpt lat="40.7994503" lon="17.116793"><ele>405.0</ele><time>2026-03-23T09:29:35.657Z</time></trkpt><trkpt lat="40.7994962" lon="17.116693"><ele>404.0</ele><time>2026-03-23T09:29:37.641Z</time></trkpt><trkpt lat="40.799558" lon="17.1165815"><ele>403.66666666666663</ele><time>2026-03-23T09:29:39.637Z</time></trkpt><trkpt lat="40.7996153" lon="17.1164728"><ele>403.3333333333333</ele><time>2026-03-23T09:29:41.651Z</time></trkpt><trkpt lat="40.7996652" lon="17.1164051"><ele>403.0</ele><time>2026-03-23T09:29:44.642Z</time></trkpt><trkpt lat="40.7997041" lon="17.116331"><ele>402.66666666666663</ele><time>2026-03-23T09:30:13.648Z</time></trkpt><trkpt lat="40.7997404" lon="17.1162277"><ele>402.3333333333333</ele><time>2026-03-23T09:30:15.637Z</time></trkpt><trkpt lat="40.7997947" lon="17.1161728"><ele>402.0</ele><time>2026-03-23T09:30:21.628Z</time></trkpt><trkpt lat="40.799855" lon="17.1161337"><ele>402.0</ele><time>2026-03-23T09:30:27.658Z</time></trkpt><trkpt lat="40.7997821" lon="17.1161217"><ele>402.0</ele><time>2026-03-23T09:30:33.667Z</time></trkpt><trkpt lat="40.7997238" lon="17.1161873"><ele>402.0</ele><time>2026-03-23T09:30:36.645Z</time></trkpt><trkpt lat="40.7996784" lon="17.1162466"><ele>402.0</ele><time>2026-03-23T09:30:39.649Z</time></trkpt><trkpt lat="40.7996382" lon="17.1163288"><ele>402.0</ele><time>2026-03-23T09:30:43.646Z</time></trkpt><trkpt lat="40.7996658" lon="17.1164042"><ele>402.0</ele><time>2026-03-23T09:30:48.645Z</time></trkpt><trkpt lat="40.7997302" lon="17.116426"><ele>402.0</ele><time>2026-03-23T09:30:54.639Z</time></trkpt><trkpt lat="40.7997983" lon="17.1164347"><ele>402.0</ele><time>2026-03-23T09:31:34.647Z</time></trkpt><trkpt lat="40.7998778" lon="17.1164493"><ele>402.0</ele><time>2026-03-23T09:31:38.643Z</time></trkpt><trkpt lat="40.7999562" lon="17.1164762"><ele>402.0</ele><time>2026-03-23T09:31:41.664Z</time></trkpt><trkpt lat="40.8000342" lon="17.1164929"><ele>402.0</ele><time>2026-03-23T09:32:41.65Z</time></trkpt><trkpt lat="40.8000931" lon="17.1165267"><ele>402.0</ele><time>2026-03-23T09:32:44.652Z</time></trkpt><trkpt lat="40.8001551" lon="17.1165449"><ele>402.0</ele><time>2026-03-23T09:32:48.639Z</time></trkpt><trkpt lat="40.800219" lon="17.1165296"><ele>402.0</ele><time>2026-03-23T09:32:53.658Z</time></trkpt><trkpt lat="40.8002826" lon="17.1165153"><ele>401.0</ele><time>2026-03-23T09:33:04.639Z</time></trkpt><trkpt lat="40.8003524" lon="17.1165089"><ele>400.0</ele><time>2026-03-23T09:33:07.641Z</time></trkpt><trkpt lat="40.8004236" lon="17.1165078"><ele>399.0</ele><time>2026-03-23T09:33:10.646Z</time></trkpt><trkpt lat="40.8005063" lon="17.1165238"><ele>398.0</ele><time>2026-03-23T09:33:14.649Z</time></trkpt><trkpt lat="40.8005722" lon="17.1165143"><ele>397.0</ele><time>2026-03-23T09:33:18.639Z</time></trkpt><trkpt lat="40.8006509" lon="17.1164949"><ele>396.0</ele><time>2026-03-23T09:33:22.643Z</time></trkpt><trkpt lat="40.8007282" lon="17.1165012"><ele>395.0</ele><time>2026-03-23T09:33:26.644Z</time></trkpt><trkpt lat="40.8007916" lon="17.1165313"><ele>394.85714285714283</ele><time>2026-03-23T09:33:34.649Z</time></trkpt><trkpt lat="40.8008486" lon="17.1165774"><ele>394.7142857142857</ele><time>2026-03-23T09:33:40.647Z</time></trkpt><trkpt lat="40.8009157" lon="17.1166057"><ele>394.57142857142856</ele><time>2026-03-23T09:33:45.646Z</time></trkpt><trkpt lat="40.8009884" lon="17.1166233"><ele>394.42857142857144</ele><time>2026-03-23T09:33:50.646Z</time></trkpt><trkpt lat="40.8010715" lon="17.1166192"><ele>394.28571428571433</ele><time>2026-03-23T09:33:55.653Z</time></trkpt><trkpt lat="40.8011136" lon="17.1165539"><ele>394.14285714285717</ele><time>2026-03-23T09:33:57.649Z</time></trkpt><trkpt lat="40.8011571" lon="17.1164515"><ele>394.0</ele><time>2026-03-23T09:34:00.642Z</time></trkpt><trkpt lat="40.8011476" lon="17.1163682"><ele>394.14285714285717</ele><time>2026-03-23T09:34:03.636Z</time></trkpt><trkpt lat="40.8010817" lon="17.1163987"><ele>394.28571428571433</ele><time>2026-03-23T09:35:01.639Z</time></trkpt><trkpt lat="40.8011267" lon="17.1164584"><ele>394.42857142857144</ele><time>2026-03-23T09:35:19.644Z</time></trkpt><trkpt lat="40.8010819" lon="17.1165406"><ele>394.57142857142856</ele><time>2026-03-23T09:35:23.656Z</time></trkpt><trkpt lat="40.8009987" lon="17.1165174"><ele>394.7142857142857</ele><time>2026-03-23T09:35:26.645Z</time></trkpt><trkpt lat="40.8009175" lon="17.1164902"><ele>394.85714285714283</ele><time>2026-03-23T09:35:29.653Z</time></trkpt><trkpt lat="40.8008646" lon="17.1164386"><ele>395.0</ele><time>2026-03-23T09:35:32.654Z</time></trkpt><trkpt lat="40.8008973" lon="17.1163584"><ele>395.0</ele><time>2026-03-23T09:35:43.646Z</time></trkpt><trkpt lat="40.8009274" lon="17.1162819"><ele>395.0</ele><time>2026-03-23T09:35:52.651Z</time></trkpt><trkpt lat="40.800964" lon="17.1162116"><ele>395.0</ele><time>2026-03-23T09:35:56.649Z</time></trkpt><trkpt lat="40.8010248" lon="17.1162354"><ele>395.0</ele><time>2026-03-23T09:36:00.663Z</time></trkpt><trkpt lat="40.8010584" lon="17.116324"><ele>395.0</ele><time>2026-03-23T09:36:04.639Z</time></trkpt><trkpt lat="40.8010071" lon="17.1164033"><ele>395.0</ele><time>2026-03-23T09:36:10.667Z</time></trkpt><trkpt lat="40.8009712" lon="17.1163319"><ele>395.0</ele><time>2026-03-23T09:36:15.648Z</time></trkpt><trkpt lat="40.8009447" lon="17.1164138"><ele>395.0</ele><time>2026-03-23T09:36:20.649Z</time></trkpt><trkpt lat="40.8010103" lon="17.1164488"><ele>395.0</ele><time>2026-03-23T09:36:24.654Z</time></trkpt><trkpt lat="40.8010732" lon="17.1164022"><ele>395.0</ele><time>2026-03-23T09:36:27.654Z</time></trkpt><trkpt lat="40.8010851" lon="17.1164939"><ele>395.0</ele><time>2026-03-23T09:36:33.643Z</time></trkpt><trkpt lat="40.8010285" lon="17.116548"><ele>395.0</ele><time>2026-03-23T09:36:36.643Z</time></trkpt><trkpt lat="40.8009648" lon="17.1165311"><ele>395.0</ele><time>2026-03-23T09:36:38.644Z</time></trkpt><trkpt lat="40.8008837" lon="17.1165026"><ele>395.0</ele><time>2026-03-23T09:36:41.644Z</time></trkpt><trkpt lat="40.8008683" lon="17.1163994"><ele>395.0</ele><time>2026-03-23T09:36:45.661Z</time></trkpt><trkpt lat="40.8009101" lon="17.1163158"><ele>395.0</ele><time>2026-03-23T09:36:48.645Z</time></trkpt><trkpt lat="40.8009393" lon="17.1162325"><ele>395.0</ele><time>2026-03-23T09:36:51.636Z</time></trkpt><trkpt lat="40.8010146" lon="17.1162321"><ele>395.0</ele><time>2026-03-23T09:36:54.654Z</time></trkpt><trkpt lat="40.8010615" lon="17.1162915"><ele>395.0</ele><time>2026-03-23T09:36:56.661Z</time></trkpt><trkpt lat="40.801041" lon="17.1163721"><ele>395.0</ele><time>2026-03-23T09:36:59.635Z</time></trkpt><trkpt lat="40.8009806" lon="17.1164174"><ele>395.0</ele><time>2026-03-23T09:37:03.644Z</time></trkpt><trkpt lat="40.8009528" lon="17.116342"><ele>395.0</ele><time>2026-03-23T09:37:07.64Z</time></trkpt><trkpt lat="40.8009547" lon="17.1164312"><ele>395.0</ele><time>2026-03-23T09:37:12.66Z</time></trkpt><trkpt lat="40.8010226" lon="17.1164472"><ele>395.0</ele><time>2026-03-23T09:37:16.649Z</time></trkpt><trkpt lat="40.8010889" lon="17.1163983"><ele>395.0</ele><time>2026-03-23T09:37:20.642Z</time></trkpt><trkpt lat="40.8010871" lon="17.1164945"><ele>395.0</ele><time>2026-03-23T09:37:26.644Z</time></trkpt><trkpt lat="40.8010219" lon="17.1165469"><ele>395.0</ele><time>2026-03-23T09:37:29.639Z</time></trkpt><trkpt lat="40.8009616" lon="17.1165166"><ele>395.0</ele><time>2026-03-23T09:37:31.644Z</time></trkpt><trkpt lat="40.8008848" lon="17.1164949"><ele>394.99999999999994</ele><time>2026-03-23T09:37:34.652Z</time></trkpt><trkpt lat="40.8008551" lon="17.1164118"><ele>395.0</ele><time>2026-03-23T09:37:37.647Z</time></trkpt><trkpt lat="40.8008979" lon="17.1163183"><ele>395.0</ele><time>2026-03-23T09:37:40.655Z</time></trkpt><trkpt lat="40.8009347" lon="17.1162271"><ele>395.0</ele><time>2026-03-23T09:37:44.65Z</time></trkpt><trkpt lat="40.8009988" lon="17.1162183"><ele>394.99999999999994</ele><time>2026-03-23T09:37:47.632Z</time></trkpt><trkpt lat="40.8010619" lon="17.1162935"><ele>395.0</ele><time>2026-03-23T09:37:50.643Z</time></trkpt><trkpt lat="40.8010307" lon="17.1163795"><ele>395.0</ele><time>2026-03-23T09:37:54.636Z</time></trkpt><trkpt lat="40.8009614" lon="17.1163873"><ele>395.0</ele><time>2026-03-23T09:37:58.647Z</time></trkpt><trkpt lat="40.800987" lon="17.1164691"><ele>395.0</ele><time>2026-03-23T09:38:03.638Z</time></trkpt><trkpt lat="40.8010454" lon="17.1164236"><ele>395.0</ele><time>2026-03-23T09:38:05.644Z</time></trkpt><trkpt lat="40.801106" lon="17.1163822"><ele>395.0</ele><time>2026-03-23T09:38:08.648Z</time></trkpt><trkpt lat="40.801105" lon="17.1164846"><ele>395.0</ele><time>2026-03-23T09:38:11.642Z</time></trkpt><trkpt lat="40.8010396" lon="17.116545"><ele>395.0</ele><time>2026-03-23T09:38:14.657Z</time></trkpt><trkpt lat="40.8009773" lon="17.1165235"><ele>394.99999999999994</ele><time>2026-03-23T09:38:16.658Z</time></trkpt><trkpt lat="40.8008943" lon="17.1164961"><ele>395.0</ele><time>2026-03-23T09:38:19.651Z</time></trkpt><trkpt lat="40.8008554" lon="17.1164166"><ele>395.0</ele><time>2026-03-23T09:38:22.649Z</time></trkpt><trkpt lat="40.8008945" lon="17.1163365"><ele>395.0</ele><time>2026-03-23T09:38:25.645Z</time></trkpt><trkpt lat="40.8009372" lon="17.1162683"><ele>394.99999999999994</ele><time>2026-03-23T09:38:28.647Z</time></trkpt><trkpt lat="40.8009953" lon="17.1162072"><ele>395.0</ele><time>2026-03-23T09:38:31.637Z</time></trkpt><trkpt lat="40.8010676" lon="17.1162843"><ele>395.0</ele><time>2026-03-23T09:38:34.666Z</time></trkpt><trkpt lat="40.8010445" lon="17.1163855"><ele>395.0</ele><time>2026-03-23T09:38:37.641Z</time></trkpt><trkpt lat="40.8009811" lon="17.1163696"><ele>395.0</ele><time>2026-03-23T09:38:46.65Z</time></trkpt><trkpt lat="40.801052" lon="17.1163532"><ele>395.0</ele><time>2026-03-23T09:38:57.635Z</time></trkpt><trkpt lat="40.8010603" lon="17.1162662"><ele>395.0</ele><time>2026-03-23T09:39:00.649Z</time></trkpt><trkpt lat="40.8010223" lon="17.116341"><ele>395.0</ele><time>2026-03-23T09:39:43.646Z</time></trkpt><trkpt lat="40.8009541" lon="17.116339"><ele>395.0</ele><time>2026-03-23T09:39:50.648Z</time></trkpt><trkpt lat="40.8009396" lon="17.1164318"><ele>395.0</ele><time>2026-03-23T09:39:54.652Z</time></trkpt><trkpt lat="40.8010104" lon="17.1164425"><ele>395.0</ele><time>2026-03-23T09:39:58.652Z</time></trkpt><trkpt lat="40.801072" lon="17.11638"><ele>395.0</ele><time>2026-03-23T09:40:01.642Z</time></trkpt><trkpt lat="40.8011286" lon="17.1163294"><ele>395.0</ele><time>2026-03-23T09:40:10.639Z</time></trkpt><trkpt lat="40.801109" lon="17.1162427"><ele>395.0</ele><time>2026-03-23T09:40:28.646Z</time></trkpt><trkpt lat="40.8010833" lon="17.1161579"><ele>395.0</ele><time>2026-03-23T09:40:36.658Z</time></trkpt><trkpt lat="40.8010237" lon="17.1161311"><ele>395.0</ele><time>2026-03-23T09:40:44.634Z</time></trkpt><trkpt lat="40.8009587" lon="17.1161515"><ele>395.0</ele><time>2026-03-23T09:40:55.638Z</time></trkpt><trkpt lat="40.8008906" lon="17.1160891"><ele>395.0</ele><time>2026-03-23T09:41:08.649Z</time></trkpt><trkpt lat="40.8008167" lon="17.1160577"><ele>395.0</ele><time>2026-03-23T09:41:11.639Z</time></trkpt><trkpt lat="40.8007399" lon="17.1160446"><ele>395.0</ele><time>2026-03-23T09:42:05.645Z</time></trkpt><trkpt lat="40.8006703" lon="17.1160083"><ele>395.0</ele><time>2026-03-23T09:42:09.646Z</time></trkpt><trkpt lat="40.8006089" lon="17.1159864"><ele>395.0</ele><time>2026-03-23T09:42:12.648Z</time></trkpt><trkpt lat="40.8005417" lon="17.1159774"><ele>395.0</ele><time>2026-03-23T09:42:15.647Z</time></trkpt><trkpt lat="40.8004693" lon="17.1159649"><ele>395.0</ele><time>2026-03-23T09:42:18.63Z</time></trkpt><trkpt lat="40.8004006" lon="17.1159469"><ele>395.0</ele><time>2026-03-23T09:42:21.648Z</time></trkpt><trkpt lat="40.8003299" lon="17.1159328"><ele>395.0</ele><time>2026-03-23T09:42:25.646Z</time></trkpt><trkpt lat="40.8002573" lon="17.1159241"><ele>395.0</ele><time>2026-03-23T09:42:29.639Z</time></trkpt><trkpt lat="40.8001927" lon="17.1159143"><ele>395.0</ele><time>2026-03-23T09:42:33.646Z</time></trkpt><trkpt lat="40.8001224" lon="17.1159694"><ele>395.0</ele><time>2026-03-23T09:42:37.64Z</time></trkpt><trkpt lat="40.800122" lon="17.1160759"><ele>395.0</ele><time>2026-03-23T09:42:40.667Z</time></trkpt><trkpt lat="40.8001095" lon="17.1161704"><ele>396.0</ele><time>2026-03-23T09:42:43.645Z</time></trkpt><trkpt lat="40.8000784" lon="17.116251"><ele>397.0</ele><time>2026-03-23T09:42:46.652Z</time></trkpt><trkpt lat="40.8000537" lon="17.1163427"><ele>398.0</ele><time>2026-03-23T09:42:49.638Z</time></trkpt><trkpt lat="40.8000259" lon="17.116424"><ele>399.0</ele><time>2026-03-23T09:42:52.643Z</time></trkpt><trkpt lat="40.7999582" lon="17.1164462"><ele>400.0</ele><time>2026-03-23T09:42:55.639Z</time></trkpt><trkpt lat="40.7998836" lon="17.1164214"><ele>401.0</ele><time>2026-03-23T09:42:58.648Z</time></trkpt><trkpt lat="40.7998215" lon="17.1163986"><ele>402.0</ele><time>2026-03-23T09:43:01.64Z</time></trkpt><trkpt lat="40.7997497" lon="17.1163973"><ele>402.0</ele><time>2026-03-23T09:43:05.656Z</time></trkpt><trkpt lat="40.7996937" lon="17.116438"><ele>402.0</ele><time>2026-03-23T09:43:11.641Z</time></trkpt><trkpt lat="40.7997575" lon="17.1164163"><ele>402.0</ele><time>2026-03-23T09:43:48.638Z</time></trkpt><trkpt lat="40.7998163" lon="17.1164465"><ele>402.0</ele><time>2026-03-23T09:43:53.64Z</time></trkpt><trkpt lat="40.799753" lon="17.1164108"><ele>402.0</ele><time>2026-03-23T09:44:34.641Z</time></trkpt><trkpt lat="40.7996852" lon="17.1164202"><ele>402.0</ele><time>2026-03-23T09:44:40.651Z</time></trkpt><trkpt lat="40.7996158" lon="17.1164"><ele>402.0</ele><time>2026-03-23T09:45:18.646Z</time></trkpt><trkpt lat="40.7995572" lon="17.1164534"><ele>402.0</ele><time>2026-03-23T09:45:21.644Z</time></trkpt><trkpt lat="40.7995108" lon="17.1165492"><ele>402.0</ele><time>2026-03-23T09:45:24.641Z</time></trkpt><trkpt lat="40.7994641" lon="17.1166443"><ele>402.0</ele><time>2026-03-23T09:45:27.629Z</time></trkpt><trkpt lat="40.79942" lon="17.1167465"><ele>402.0</ele><time>2026-03-23T09:45:30.667Z</time></trkpt><trkpt lat="40.7993778" lon="17.1168426"><ele>402.0</ele><time>2026-03-23T09:45:33.646Z</time></trkpt><trkpt lat="40.7993479" lon="17.116931"><ele>402.0</ele><time>2026-03-23T09:45:35.656Z</time></trkpt><trkpt lat="40.7993151" lon="17.117035"><ele>403.1666666666667</ele><time>2026-03-23T09:45:37.649Z</time></trkpt><trkpt lat="40.7992668" lon="17.1171067"><ele>404.33333333333337</ele><time>2026-03-23T09:45:39.639Z</time></trkpt><trkpt lat="40.7992322" lon="17.1171916"><ele>405.5</ele><time>2026-03-23T09:45:41.643Z</time></trkpt><trkpt lat="40.7991946" lon="17.1172775"><ele>406.6666666666667</ele><time>2026-03-23T09:45:43.637Z</time></trkpt><trkpt lat="40.7991571" lon="17.1173631"><ele>407.83333333333337</ele><time>2026-03-23T09:45:45.658Z</time></trkpt><trkpt lat="40.7991099" lon="17.1174364"><ele>409.0</ele><time>2026-03-23T09:45:47.638Z</time></trkpt><trkpt lat="40.7990707" lon="17.1175303"><ele>409.00000000000006</ele><time>2026-03-23T09:45:49.639Z</time></trkpt><trkpt lat="40.7990172" lon="17.1176154"><ele>409.0</ele><time>2026-03-23T09:45:51.635Z</time></trkpt><trkpt lat="40.7989858" lon="17.1176946"><ele>409.0</ele><time>2026-03-23T09:45:53.632Z</time></trkpt><trkpt lat="40.7989606" lon="17.1177866"><ele>409.0</ele><time>2026-03-23T09:45:55.639Z</time></trkpt><trkpt lat="40.7989206" lon="17.1178697"><ele>409.00000000000006</ele><time>2026-03-23T09:45:57.633Z</time></trkpt><trkpt lat="40.798882" lon="17.1179555"><ele>409.0</ele><time>2026-03-23T09:45:59.645Z</time></trkpt><trkpt lat="40.7988447" lon="17.1180428"><ele>409.0</ele><time>2026-03-23T09:46:01.641Z</time></trkpt><trkpt lat="40.7988112" lon="17.1181302"><ele>409.0</ele><time>2026-03-23T09:46:03.641Z</time></trkpt><trkpt lat="40.7987794" lon="17.1182034"><ele>409.0</ele><time>2026-03-23T09:46:05.664Z</time></trkpt><trkpt lat="40.7987449" lon="17.1182962"><ele>409.0</ele><time>2026-03-23T09:46:08.64Z</time></trkpt><trkpt lat="40.7986795" lon="17.1183749"><ele>409.0</ele><time>2026-03-23T09:46:12.643Z</time></trkpt><trkpt lat="40.7986421" lon="17.118442"><ele>409.0</ele><time>2026-03-23T09:46:15.642Z</time></trkpt><trkpt lat="40.7986209" lon="17.1185321"><ele>409.0</ele><time>2026-03-23T09:46:18.639Z</time></trkpt><trkpt lat="40.7985904" lon="17.1186094"><ele>409.1428571428571</ele><time>2026-03-23T09:46:35.643Z</time></trkpt><trkpt lat="40.7985576" lon="17.1186865"><ele>409.28571428571433</ele><time>2026-03-23T09:46:41.641Z</time></trkpt><trkpt lat="40.7985353" lon="17.1187693"><ele>409.42857142857144</ele><time>2026-03-23T09:46:43.643Z</time></trkpt><trkpt lat="40.7985" lon="17.1188537"><ele>409.57142857142856</ele><time>2026-03-23T09:46:45.648Z</time></trkpt><trkpt lat="40.798465" lon="17.1189388"><ele>409.71428571428567</ele><time>2026-03-23T09:46:47.643Z</time></trkpt><trkpt lat="40.7984363" lon="17.1190268"><ele>409.8571428571429</ele><time>2026-03-23T09:46:49.64Z</time></trkpt><trkpt lat="40.7983911" lon="17.1191098"><ele>410.0</ele><time>2026-03-23T09:46:51.64Z</time></trkpt><trkpt lat="40.7983428" lon="17.1191855"><ele>410.16666666666663</ele><time>2026-03-23T09:46:53.636Z</time></trkpt><trkpt lat="40.7983096" lon="17.1192601"><ele>410.3333333333333</ele><time>2026-03-23T09:46:55.641Z</time></trkpt><trkpt lat="40.7982588" lon="17.1193554"><ele>410.5</ele><time>2026-03-23T09:46:58.646Z</time></trkpt><trkpt lat="40.7982233" lon="17.1194299"><ele>410.66666666666663</ele><time>2026-03-23T09:47:00.652Z</time></trkpt><trkpt lat="40.7981842" lon="17.1195324"><ele>410.8333333333333</ele><time>2026-03-23T09:47:03.632Z</time></trkpt><trkpt lat="40.7981373" lon="17.119632"><ele>411.0</ele><time>2026-03-23T09:47:06.644Z</time></trkpt><trkpt lat="40.7981058" lon="17.1197048"><ele>411.0</ele><time>2026-03-23T09:47:08.649Z</time></trkpt><trkpt lat="40.7980658" lon="17.1198048"><ele>411.0</ele><time>2026-03-23T09:47:11.644Z</time></trkpt><trkpt lat="40.7980278" lon="17.119899"><ele>411.0</ele><time>2026-03-23T09:47:14.645Z</time></trkpt><trkpt lat="40.7979809" lon="17.1200006"><ele>411.0</ele><time>2026-03-23T09:47:17.64Z</time></trkpt><trkpt lat="40.7979391" lon="17.1200938"><ele>411.0</ele><time>2026-03-23T09:47:20.656Z</time></trkpt><trkpt lat="40.7978992" lon="17.1201917"><ele>411.0</ele><time>2026-03-23T09:47:23.639Z</time></trkpt><trkpt lat="40.797874" lon="17.1202989"><ele>411.0</ele><time>2026-03-23T09:47:26.64Z</time></trkpt><trkpt lat="40.7978634" lon="17.1204059"><ele>411.0</ele><time>2026-03-23T09:47:29.64Z</time></trkpt><trkpt lat="40.7978422" lon="17.1205115"><ele>411.0</ele><time>2026-03-23T09:47:32.638Z</time></trkpt><trkpt lat="40.7978143" lon="17.1206199"><ele>411.0</ele><time>2026-03-23T09:47:35.653Z</time></trkpt><trkpt lat="40.7977781" lon="17.1206941"><ele>411.0</ele><time>2026-03-23T09:47:37.639Z</time></trkpt><trkpt lat="40.7977065" lon="17.1207623"><ele>411.0</ele><time>2026-03-23T09:47:40.642Z</time></trkpt><trkpt lat="40.7976335" lon="17.1208148"><ele>412.0</ele><time>2026-03-23T09:47:43.64Z</time></trkpt><trkpt lat="40.7975756" lon="17.1208547"><ele>413.0</ele><time>2026-03-23T09:47:46.637Z</time></trkpt><trkpt lat="40.7975215" lon="17.1209209"><ele>414.0</ele><time>2026-03-23T09:47:50.666Z</time></trkpt><trkpt lat="40.7974725" lon="17.120977"><ele>415.0</ele><time>2026-03-23T09:47:53.633Z</time></trkpt><trkpt lat="40.7974116" lon="17.1210281"><ele>416.0</ele><time>2026-03-23T09:47:56.643Z</time></trkpt><trkpt lat="40.7973361" lon="17.1211013"><ele>417.0</ele><time>2026-03-23T09:47:59.638Z</time></trkpt><trkpt lat="40.7972488" lon="17.1211435"><ele>417.0</ele><time>2026-03-23T09:48:02.644Z</time></trkpt><trkpt lat="40.7971774" lon="17.1211952"><ele>417.0</ele><time>2026-03-23T09:48:05.644Z</time></trkpt><trkpt lat="40.7971316" lon="17.1212561"><ele>417.0</ele><time>2026-03-23T09:48:07.637Z</time></trkpt><trkpt lat="40.7970708" lon="17.121346"><ele>417.0</ele><time>2026-03-23T09:48:10.642Z</time></trkpt><trkpt lat="40.7970144" lon="17.1214276"><ele>417.0</ele><time>2026-03-23T09:48:13.635Z</time></trkpt><trkpt lat="40.7969491" lon="17.1215108"><ele>417.0</ele><time>2026-03-23T09:48:16.655Z</time></trkpt><trkpt lat="40.7968933" lon="17.121603"><ele>417.1666666666667</ele><time>2026-03-23T09:48:19.615Z</time></trkpt><trkpt lat="40.7968411" lon="17.1216909"><ele>417.33333333333337</ele><time>2026-03-23T09:48:22.655Z</time></trkpt><trkpt lat="40.7967774" lon="17.1217583"><ele>417.5</ele><time>2026-03-23T09:48:25.688Z</time></trkpt><trkpt lat="40.7967237" lon="17.121853"><ele>417.6666666666667</ele><time>2026-03-23T09:48:28.625Z</time></trkpt><trkpt lat="40.7966714" lon="17.121944"><ele>417.83333333333337</ele><time>2026-03-23T09:48:31.627Z</time></trkpt><trkpt lat="40.7966153" lon="17.1220454"><ele>418.0</ele><time>2026-03-23T09:48:34.668Z</time></trkpt><trkpt lat="40.7965735" lon="17.1221133"><ele>418.00000000000006</ele><time>2026-03-23T09:48:36.676Z</time></trkpt><trkpt lat="40.7965135" lon="17.122191"><ele>418.0</ele><time>2026-03-23T09:48:39.668Z</time></trkpt><trkpt lat="40.7964314" lon="17.1222288"><ele>418.0</ele><time>2026-03-23T09:48:42.652Z</time></trkpt><trkpt lat="40.7963656" lon="17.1222559"><ele>418.0</ele><time>2026-03-23T09:48:45.661Z</time></trkpt><trkpt lat="40.7963036" lon="17.1222991"><ele>418.00000000000006</ele><time>2026-03-23T09:48:50.67Z</time></trkpt><trkpt lat="40.7962259" lon="17.1223358"><ele>418.0</ele><time>2026-03-23T09:49:00.65Z</time></trkpt><trkpt lat="40.7961471" lon="17.1223819"><ele>418.33333333333337</ele><time>2026-03-23T09:49:03.63Z</time></trkpt><trkpt lat="40.7960867" lon="17.1224436"><ele>418.6666666666667</ele><time>2026-03-23T09:49:06.68Z</time></trkpt><trkpt lat="40.796062" lon="17.1225283"><ele>419.0</ele><time>2026-03-23T09:49:09.671Z</time></trkpt><trkpt lat="40.7961225" lon="17.1226127"><ele>419.33333333333337</ele><time>2026-03-23T09:49:12.677Z</time></trkpt><trkpt lat="40.7961828" lon="17.1226648"><ele>419.6666666666667</ele><time>2026-03-23T09:49:14.684Z</time></trkpt><trkpt lat="40.7962068" lon="17.1227652"><ele>420.0</ele><time>2026-03-23T09:49:18.651Z</time></trkpt><trkpt lat="40.796212" lon="17.1228504"><ele>420.0</ele><time>2026-03-23T09:49:20.654Z</time></trkpt><trkpt lat="40.7962027" lon="17.1229354"><ele>420.0</ele><time>2026-03-23T09:49:22.631Z</time></trkpt><trkpt lat="40.7961726" lon="17.1230188"><ele>420.0</ele><time>2026-03-23T09:49:24.64Z</time></trkpt><trkpt lat="40.7961109" lon="17.1231083"><ele>420.0</ele><time>2026-03-23T09:49:27.631Z</time></trkpt><trkpt lat="40.796075" lon="17.1231788"><ele>420.0</ele><time>2026-03-23T09:49:30.628Z</time></trkpt><trkpt lat="40.7960551" lon="17.1232674"><ele>420.0</ele><time>2026-03-23T09:49:32.64Z</time></trkpt><trkpt lat="40.7960177" lon="17.1233425"><ele>420.0</ele><time>2026-03-23T09:49:35.674Z</time></trkpt><trkpt lat="40.7959519" lon="17.1233222"><ele>420.2857142857143</ele><time>2026-03-23T09:49:37.655Z</time></trkpt><trkpt lat="40.7958802" lon="17.123272"><ele>420.57142857142856</ele><time>2026-03-23T09:49:40.658Z</time></trkpt><trkpt lat="40.7958289" lon="17.1232235"><ele>420.8571428571429</ele><time>2026-03-23T09:49:42.662Z</time></trkpt><trkpt lat="40.7957851" lon="17.1231622"><ele>421.1428571428571</ele><time>2026-03-23T09:49:44.661Z</time></trkpt><trkpt lat="40.7957182" lon="17.1231172"><ele>421.42857142857144</ele><time>2026-03-23T09:49:47.663Z</time></trkpt><trkpt lat="40.7957149" lon="17.1230055"><ele>421.7142857142857</ele><time>2026-03-23T09:49:52.666Z</time></trkpt><trkpt lat="40.7957505" lon="17.1229218"><ele>422.0</ele><time>2026-03-23T09:49:56.81Z</time></trkpt><trkpt lat="40.7956864" lon="17.1229314"><ele>422.16666666666663</ele><time>2026-03-23T09:51:25.665Z</time></trkpt><trkpt lat="40.7956497" lon="17.1230242"><ele>422.3333333333333</ele><time>2026-03-23T09:51:28.672Z</time></trkpt><trkpt lat="40.7956339" lon="17.123112"><ele>422.5</ele><time>2026-03-23T09:51:46.66Z</time></trkpt><trkpt lat="40.7955761" lon="17.1230545"><ele>422.66666666666663</ele><time>2026-03-23T09:52:09.642Z</time></trkpt><trkpt lat="40.7955199" lon="17.1229941"><ele>422.8333333333333</ele><time>2026-03-23T09:52:11.665Z</time></trkpt><trkpt lat="40.7954696" lon="17.1229016"><ele>423.0</ele><time>2026-03-23T09:52:15.665Z</time></trkpt><trkpt lat="40.7953934" lon="17.1229193"><ele>423.0</ele><time>2026-03-23T09:52:20.654Z</time></trkpt><trkpt lat="40.795358" lon="17.1229895"><ele>423.0</ele><time>2026-03-23T09:52:22.665Z</time></trkpt><trkpt lat="40.7953226" lon="17.1230624"><ele>423.0</ele><time>2026-03-23T09:52:24.677Z</time></trkpt><trkpt lat="40.7952721" lon="17.1231239"><ele>423.0</ele><time>2026-03-23T09:52:26.661Z</time></trkpt><trkpt lat="40.7952217" lon="17.12318"><ele>423.0</ele><time>2026-03-23T09:52:28.669Z</time></trkpt><trkpt lat="40.795164" lon="17.123233"><ele>423.0</ele><time>2026-03-23T09:52:30.658Z</time></trkpt><trkpt lat="40.7951089" lon="17.1232947"><ele>423.0</ele><time>2026-03-23T09:52:32.673Z</time></trkpt><trkpt lat="40.7950501" lon="17.1233808"><ele>423.5</ele><time>2026-03-23T09:52:35.655Z</time></trkpt><trkpt lat="40.7950001" lon="17.1234693"><ele>424.0</ele><time>2026-03-23T09:52:38.658Z</time></trkpt><trkpt lat="40.7949333" lon="17.1235465"><ele>424.5</ele><time>2026-03-23T09:52:41.674Z</time></trkpt><trkpt lat="40.7948552" lon="17.1235469"><ele>425.0</ele><time>2026-03-23T09:52:45.789Z</time></trkpt><trkpt lat="40.7948038" lon="17.1234976"><ele>425.5</ele><time>2026-03-23T09:52:51.654Z</time></trkpt><trkpt lat="40.794777" lon="17.1235775"><ele>426.0</ele><time>2026-03-23T09:52:57.64Z</time></trkpt><trkpt lat="40.7947402" lon="17.1236588"><ele>425.99999999999994</ele><time>2026-03-23T09:53:02.663Z</time></trkpt><trkpt lat="40.7946745" lon="17.1236802"><ele>426.0</ele><time>2026-03-23T09:53:06.732Z</time></trkpt><trkpt lat="40.7946267" lon="17.1237565"><ele>426.0</ele><time>2026-03-23T09:53:10.656Z</time></trkpt><trkpt lat="40.794561" lon="17.1237556"><ele>426.0</ele><time>2026-03-23T09:53:12.664Z</time></trkpt><trkpt lat="40.7944797" lon="17.1237496"><ele>426.0</ele><time>2026-03-23T09:53:15.653Z</time></trkpt><trkpt lat="40.7944155" lon="17.1237481"><ele>425.99999999999994</ele><time>2026-03-23T09:53:17.663Z</time></trkpt><trkpt lat="40.7943438" lon="17.1238003"><ele>426.0</ele><time>2026-03-23T09:53:20.641Z</time></trkpt><trkpt lat="40.7943239" lon="17.1239056"><ele>426.0</ele><time>2026-03-23T09:53:23.645Z</time></trkpt><trkpt lat="40.794346" lon="17.1240185"><ele>426.0</ele><time>2026-03-23T09:53:26.643Z</time></trkpt><trkpt lat="40.7943994" lon="17.1240998"><ele>426.0</ele><time>2026-03-23T09:53:29.657Z</time></trkpt><trkpt lat="40.7944391" lon="17.1241682"><ele>426.0</ele><time>2026-03-23T09:53:32.663Z</time></trkpt><trkpt lat="40.7944126" lon="17.1242495"><ele>426.0</ele><time>2026-03-23T09:53:36.653Z</time></trkpt><trkpt lat="40.7943472" lon="17.1242368"><ele>426.0</ele><time>2026-03-23T09:53:39.656Z</time></trkpt><trkpt lat="40.7942836" lon="17.1243262"><ele>425.85714285714283</ele><time>2026-03-23T09:53:42.669Z</time></trkpt><trkpt lat="40.7942367" lon="17.1243907"><ele>425.7142857142857</ele><time>2026-03-23T09:53:44.664Z</time></trkpt><trkpt lat="40.7941832" lon="17.1244608"><ele>425.57142857142856</ele><time>2026-03-23T09:53:46.659Z</time></trkpt><trkpt lat="40.7941363" lon="17.1245248"><ele>425.42857142857144</ele><time>2026-03-23T09:53:48.668Z</time></trkpt><trkpt lat="40.7940804" lon="17.1245768"><ele>425.2857142857143</ele><time>2026-03-23T09:53:50.659Z</time></trkpt><trkpt lat="40.7940257" lon="17.1246386"><ele>425.1428571428571</ele><time>2026-03-23T09:53:52.675Z</time></trkpt><trkpt lat="40.7939799" lon="17.1247409"><ele>425.0</ele><time>2026-03-23T09:53:55.678Z</time></trkpt><trkpt lat="40.7939694" lon="17.1248332"><ele>424.8333333333333</ele><time>2026-03-23T09:53:58.673Z</time></trkpt><trkpt lat="40.793991" lon="17.1249386"><ele>424.66666666666663</ele><time>2026-03-23T09:54:01.657Z</time></trkpt><trkpt lat="40.7940588" lon="17.1250107"><ele>424.5</ele><time>2026-03-23T09:54:04.677Z</time></trkpt><trkpt lat="40.7941137" lon="17.1251043"><ele>424.33333333333337</ele><time>2026-03-23T09:54:07.664Z</time></trkpt><trkpt lat="40.7940821" lon="17.1251977"><ele>424.1666666666667</ele><time>2026-03-23T09:54:10.672Z</time></trkpt><trkpt lat="40.7940082" lon="17.1252692"><ele>424.0</ele><time>2026-03-23T09:54:13.667Z</time></trkpt><trkpt lat="40.7939317" lon="17.1253145"><ele>424.0</ele><time>2026-03-23T09:54:16.671Z</time></trkpt><trkpt lat="40.7938701" lon="17.1253431"><ele>424.0</ele><time>2026-03-23T09:54:18.679Z</time></trkpt><trkpt lat="40.7938146" lon="17.1253851"><ele>424.0</ele><time>2026-03-23T09:54:34.667Z</time></trkpt><trkpt lat="40.7937283" lon="17.12544"><ele>424.0</ele><time>2026-03-23T09:54:37.647Z</time></trkpt><trkpt lat="40.7936612" lon="17.1254744"><ele>424.0</ele><time>2026-03-23T09:54:39.666Z</time></trkpt><trkpt lat="40.7935959" lon="17.1254849"><ele>424.0</ele><time>2026-03-23T09:54:41.65Z</time></trkpt><trkpt lat="40.7935196" lon="17.1254583"><ele>424.0</ele><time>2026-03-23T09:54:44.654Z</time></trkpt><trkpt lat="40.7934361" lon="17.1254531"><ele>424.00000000000006</ele><time>2026-03-23T09:54:47.664Z</time></trkpt><trkpt lat="40.7933663" lon="17.125428"><ele>424.0</ele><time>2026-03-23T09:54:50.641Z</time></trkpt><trkpt lat="40.7932966" lon="17.1253916"><ele>424.0</ele><time>2026-03-23T09:54:53.662Z</time></trkpt><trkpt lat="40.7932148" lon="17.1253618"><ele>424.0</ele><time>2026-03-23T09:54:56.652Z</time></trkpt><trkpt lat="40.79315" lon="17.1253233"><ele>424.00000000000006</ele><time>2026-03-23T09:54:58.623Z</time></trkpt><trkpt lat="40.7930826" lon="17.1252851"><ele>424.0</ele><time>2026-03-23T09:55:00.644Z</time></trkpt><trkpt lat="40.7930108" lon="17.1252445"><ele>424.00000000000006</ele><time>2026-03-23T09:55:02.678Z</time></trkpt><trkpt lat="40.7929302" lon="17.1252039"><ele>424.0</ele><time>2026-03-23T09:55:04.654Z</time></trkpt><trkpt lat="40.792863" lon="17.125147"><ele>424.0</ele><time>2026-03-23T09:55:06.661Z</time></trkpt><trkpt lat="40.7928236" lon="17.1250504"><ele>424.0</ele><time>2026-03-23T09:55:09.645Z</time></trkpt><trkpt lat="40.7928385" lon="17.1249686"><ele>424.00000000000006</ele><time>2026-03-23T09:55:12.652Z</time></trkpt><trkpt lat="40.7928864" lon="17.1248731"><ele>424.0</ele><time>2026-03-23T09:55:15.655Z</time></trkpt><trkpt lat="40.7929316" lon="17.1247993"><ele>423.50000000000006</ele><time>2026-03-23T09:55:17.677Z</time></trkpt><trkpt lat="40.7929757" lon="17.124725"><ele>423.0</ele><time>2026-03-23T09:55:19.659Z</time></trkpt><trkpt lat="40.7930331" lon="17.1246355"><ele>422.5</ele><time>2026-03-23T09:55:22.686Z</time></trkpt><trkpt lat="40.7930641" lon="17.1245486"><ele>422.0</ele><time>2026-03-23T09:55:25.674Z</time></trkpt><trkpt lat="40.7930241" lon="17.1244786"><ele>421.50000000000006</ele><time>2026-03-23T09:55:28.659Z</time></trkpt><trkpt lat="40.7929494" lon="17.124409"><ele>421.0</ele><time>2026-03-23T09:55:31.637Z</time></trkpt><trkpt lat="40.7928972" lon="17.1243334"><ele>421.00000000000006</ele><time>2026-03-23T09:55:33.653Z</time></trkpt><trkpt lat="40.792822" lon="17.1242666"><ele>421.0</ele><time>2026-03-23T09:55:35.658Z</time></trkpt><trkpt lat="40.7927644" lon="17.1242095"><ele>421.0</ele><time>2026-03-23T09:55:37.646Z</time></trkpt><trkpt lat="40.7927055" lon="17.1241493"><ele>421.0</ele><time>2026-03-23T09:55:39.676Z</time></trkpt><trkpt lat="40.7926891" lon="17.1240527"><ele>421.00000000000006</ele><time>2026-03-23T09:55:41.631Z</time></trkpt><trkpt lat="40.7927495" lon="17.1239455"><ele>421.0</ele><time>2026-03-23T09:55:43.673Z</time></trkpt><trkpt lat="40.7928077" lon="17.1238444"><ele>420.83333333333337</ele><time>2026-03-23T09:55:45.652Z</time></trkpt><trkpt lat="40.7928662" lon="17.1237645"><ele>420.6666666666667</ele><time>2026-03-23T09:55:47.668Z</time></trkpt><trkpt lat="40.7929196" lon="17.1236994"><ele>420.5</ele><time>2026-03-23T09:55:49.677Z</time></trkpt><trkpt lat="40.7929702" lon="17.1236273"><ele>420.33333333333337</ele><time>2026-03-23T09:55:51.656Z</time></trkpt><trkpt lat="40.7930085" lon="17.1235344"><ele>420.1666666666667</ele><time>2026-03-23T09:55:54.671Z</time></trkpt><trkpt lat="40.7930549" lon="17.1234332"><ele>420.0</ele><time>2026-03-23T09:55:57.651Z</time></trkpt><trkpt lat="40.7931147" lon="17.1233374"><ele>420.0</ele><time>2026-03-23T09:55:59.658Z</time></trkpt><trkpt lat="40.7931766" lon="17.1232307"><ele>420.0</ele><time>2026-03-23T09:56:01.664Z</time></trkpt><trkpt lat="40.7932235" lon="17.1231403"><ele>420.0</ele><time>2026-03-23T09:56:03.686Z</time></trkpt><trkpt lat="40.7932711" lon="17.1230534"><ele>420.0</ele><time>2026-03-23T09:56:05.681Z</time></trkpt><trkpt lat="40.7933261" lon="17.1229406"><ele>420.0</ele><time>2026-03-23T09:56:07.666Z</time></trkpt><trkpt lat="40.7933829" lon="17.1228277"><ele>420.0</ele><time>2026-03-23T09:56:09.679Z</time></trkpt><trkpt lat="40.7934425" lon="17.1227221"><ele>420.0</ele><time>2026-03-23T09:56:11.668Z</time></trkpt><trkpt lat="40.793515" lon="17.1226122"><ele>420.0</ele><time>2026-03-23T09:56:13.656Z</time></trkpt><trkpt lat="40.7935797" lon="17.122501"><ele>420.0</ele><time>2026-03-23T09:56:15.656Z</time></trkpt><trkpt lat="40.7936529" lon="17.1223805"><ele>420.0</ele><time>2026-03-23T09:56:17.66Z</time></trkpt><trkpt lat="40.7937003" lon="17.1223227"><ele>418.8</ele><time>2026-03-23T09:56:18.692Z</time></trkpt><trkpt lat="40.7937438" lon="17.1222604"><ele>417.6</ele><time>2026-03-23T09:56:19.678Z</time></trkpt><trkpt lat="40.7938062" lon="17.1221379"><ele>416.4</ele><time>2026-03-23T09:56:21.682Z</time></trkpt><trkpt lat="40.7938706" lon="17.1220397"><ele>415.2</ele><time>2026-03-23T09:56:23.658Z</time></trkpt><trkpt lat="40.7939275" lon="17.1219405"><ele>414.0</ele><time>2026-03-23T09:56:25.672Z</time></trkpt><trkpt lat="40.7939757" lon="17.1218369"><ele>414.0</ele><time>2026-03-23T09:56:27.653Z</time></trkpt><trkpt lat="40.7940314" lon="17.1217399"><ele>414.0</ele><time>2026-03-23T09:56:29.685Z</time></trkpt><trkpt lat="40.794091" lon="17.1216538"><ele>414.0</ele><time>2026-03-23T09:56:31.648Z</time></trkpt><trkpt lat="40.7941456" lon="17.1215715"><ele>414.0</ele><time>2026-03-23T09:56:33.656Z</time></trkpt><trkpt lat="40.7941857" lon="17.1214965"><ele>414.0</ele><time>2026-03-23T09:56:35.66Z</time></trkpt><trkpt lat="40.7942597" lon="17.1214819"><ele>414.0</ele><time>2026-03-23T09:56:39.637Z</time></trkpt><trkpt lat="40.7943104" lon="17.1215757"><ele>414.00000000000006</ele><time>2026-03-23T09:56:42.67Z</time></trkpt><trkpt lat="40.7943103" lon="17.1216779"><ele>414.0</ele><time>2026-03-23T09:56:45.661Z</time></trkpt><trkpt lat="40.7942566" lon="17.1217579"><ele>414.0</ele><time>2026-03-23T09:56:48.644Z</time></trkpt><trkpt lat="40.7942035" lon="17.1218305"><ele>414.0</ele><time>2026-03-23T09:56:51.664Z</time></trkpt><trkpt lat="40.7942709" lon="17.121842"><ele>414.0</ele><time>2026-03-23T09:56:58.664Z</time></trkpt><trkpt lat="40.7943148" lon="17.1217761"><ele>414.00000000000006</ele><time>2026-03-23T09:57:00.634Z</time></trkpt><trkpt lat="40.7943765" lon="17.1217258"><ele>414.0</ele><time>2026-03-23T09:57:02.704Z</time></trkpt><trkpt lat="40.794441" lon="17.1216818"><ele>414.3333333333333</ele><time>2026-03-23T09:57:04.675Z</time></trkpt><trkpt lat="40.7945048" lon="17.1216486"><ele>414.66666666666663</ele><time>2026-03-23T09:57:06.675Z</time></trkpt><trkpt lat="40.7945942" lon="17.1216103"><ele>415.0</ele><time>2026-03-23T09:57:09.674Z</time></trkpt><trkpt lat="40.7946617" lon="17.1215922"><ele>415.3333333333333</ele><time>2026-03-23T09:57:11.662Z</time></trkpt><trkpt lat="40.7947372" lon="17.1215646"><ele>415.66666666666663</ele><time>2026-03-23T09:57:13.645Z</time></trkpt><trkpt lat="40.7948058" lon="17.1215391"><ele>416.0</ele><time>2026-03-23T09:57:15.655Z</time></trkpt><trkpt lat="40.7948747" lon="17.1215206"><ele>415.99999999999994</ele><time>2026-03-23T09:57:17.68Z</time></trkpt><trkpt lat="40.7949431" lon="17.1215082"><ele>416.0</ele><time>2026-03-23T09:57:19.649Z</time></trkpt><trkpt lat="40.7950125" lon="17.1214851"><ele>416.0</ele><time>2026-03-23T09:57:21.676Z</time></trkpt><trkpt lat="40.7950782" lon="17.1214691"><ele>416.0</ele><time>2026-03-23T09:57:23.666Z</time></trkpt><trkpt lat="40.7951688" lon="17.121443"><ele>415.99999999999994</ele><time>2026-03-23T09:57:26.661Z</time></trkpt><trkpt lat="40.795249" lon="17.1214279"><ele>416.0</ele><time>2026-03-23T09:57:29.66Z</time></trkpt><trkpt lat="40.7953325" lon="17.1214156"><ele>415.99999999999994</ele><time>2026-03-23T09:57:32.673Z</time></trkpt><trkpt lat="40.7954074" lon="17.1214241"><ele>416.0</ele><time>2026-03-23T09:57:35.676Z</time></trkpt><trkpt lat="40.7954805" lon="17.1214488"><ele>416.0</ele><time>2026-03-23T09:57:38.657Z</time></trkpt><trkpt lat="40.7955348" lon="17.1214953"><ele>416.0</ele><time>2026-03-23T09:57:41.674Z</time></trkpt><trkpt lat="40.795609" lon="17.1215283"><ele>415.99999999999994</ele><time>2026-03-23T09:57:45.639Z</time></trkpt><trkpt lat="40.7956742" lon="17.1214905"><ele>416.0</ele><time>2026-03-23T09:57:48.664Z</time></trkpt><trkpt lat="40.7957486" lon="17.1214182"><ele>415.99999999999994</ele><time>2026-03-23T09:57:51.673Z</time></trkpt><trkpt lat="40.7957949" lon="17.1213401"><ele>416.0</ele><time>2026-03-23T09:57:53.67Z</time></trkpt><trkpt lat="40.795838" lon="17.1212726"><ele>416.0</ele><time>2026-03-23T09:57:55.651Z</time></trkpt><trkpt lat="40.7958954" lon="17.1212062"><ele>416.0</ele><time>2026-03-23T09:57:58.659Z</time></trkpt><trkpt lat="40.7959539" lon="17.1212733"><ele>415.99999999999994</ele><time>2026-03-23T09:58:01.643Z</time></trkpt><trkpt lat="40.7959861" lon="17.121355"><ele>416.0</ele><time>2026-03-23T09:58:03.657Z</time></trkpt><trkpt lat="40.7960337" lon="17.1214624"><ele>415.99999999999994</ele><time>2026-03-23T09:58:05.665Z</time></trkpt><trkpt lat="40.7960803" lon="17.1215288"><ele>416.0</ele><time>2026-03-23T09:58:07.635Z</time></trkpt><trkpt lat="40.7961231" lon="17.1215954"><ele>416.0</ele><time>2026-03-23T09:58:09.644Z</time></trkpt><trkpt lat="40.7961697" lon="17.1216527"><ele>416.0</ele><time>2026-03-23T09:58:11.673Z</time></trkpt><trkpt lat="40.7962366" lon="17.1217314"><ele>415.99999999999994</ele><time>2026-03-23T09:58:14.684Z</time></trkpt><trkpt lat="40.7963049" lon="17.1218053"><ele>416.0</ele><time>2026-03-23T09:58:17.672Z</time></trkpt><trkpt lat="40.7963738" lon="17.1218733"><ele>416.2857142857143</ele><time>2026-03-23T09:58:20.686Z</time></trkpt><trkpt lat="40.7964356" lon="17.1219104"><ele>416.5714285714286</ele><time>2026-03-23T09:58:23.658Z</time></trkpt><trkpt lat="40.7965201" lon="17.1219232"><ele>416.8571428571429</ele><time>2026-03-23T09:58:27.666Z</time></trkpt><trkpt lat="40.7965896" lon="17.1219317"><ele>417.1428571428571</ele><time>2026-03-23T09:58:30.66Z</time></trkpt><trkpt lat="40.7966551" lon="17.1218931"><ele>417.42857142857144</ele><time>2026-03-23T09:58:33.663Z</time></trkpt><trkpt lat="40.796723" lon="17.1218655"><ele>417.7142857142857</ele><time>2026-03-23T09:58:37.682Z</time></trkpt><trkpt lat="40.7967754" lon="17.1218158"><ele>418.0</ele><time>2026-03-23T09:58:40.65Z</time></trkpt><trkpt lat="40.7968182" lon="17.1217538"><ele>418.0</ele><time>2026-03-23T09:58:42.676Z</time></trkpt><trkpt lat="40.7968714" lon="17.1216979"><ele>418.0</ele><time>2026-03-23T09:58:44.673Z</time></trkpt><trkpt lat="40.7969177" lon="17.1216381"><ele>418.0</ele><time>2026-03-23T09:58:46.652Z</time></trkpt><trkpt lat="40.7969641" lon="17.1215713"><ele>418.0</ele><time>2026-03-23T09:58:48.684Z</time></trkpt><trkpt lat="40.7970049" lon="17.1215056"><ele>418.0</ele><time>2026-03-23T09:58:50.669Z</time></trkpt><trkpt lat="40.7970518" lon="17.1214343"><ele>418.0</ele><time>2026-03-23T09:58:52.697Z</time></trkpt><trkpt lat="40.7970876" lon="17.1213601"><ele>418.0</ele><time>2026-03-23T09:58:54.665Z</time></trkpt><trkpt lat="40.7971465" lon="17.1212765"><ele>417.83333333333337</ele><time>2026-03-23T09:58:57.673Z</time></trkpt><trkpt lat="40.7972006" lon="17.1211876"><ele>417.6666666666667</ele><time>2026-03-23T09:59:00.672Z</time></trkpt><trkpt lat="40.7972623" lon="17.1211165"><ele>417.5</ele><time>2026-03-23T09:59:03.661Z</time></trkpt><trkpt lat="40.7972071" lon="17.1211942"><ele>417.33333333333337</ele><time>2026-03-23T09:59:08.668Z</time></trkpt><trkpt lat="40.7972598" lon="17.1212727"><ele>417.1666666666667</ele><time>2026-03-23T09:59:40.623Z</time></trkpt><trkpt lat="40.797298" lon="17.1213737"><ele>417.0</ele><time>2026-03-23T09:59:42.644Z</time></trkpt><trkpt lat="40.7973493" lon="17.1214557"><ele>417.0</ele><time>2026-03-23T09:59:44.612Z</time></trkpt><trkpt lat="40.7974081" lon="17.1215481"><ele>417.0</ele><time>2026-03-23T09:59:46.612Z</time></trkpt><trkpt lat="40.7974735" lon="17.1216393"><ele>417.0</ele><time>2026-03-23T09:59:48.611Z</time></trkpt><trkpt lat="40.7972821" lon="17.1213938"><ele>417.0</ele><time>2026-03-23T09:59:54.606Z</time></trkpt><trkpt lat="40.797175" lon="17.1211366"><ele>417.0</ele><time>2026-03-23T10:01:13.617Z</time></trkpt><trkpt lat="40.7972389" lon="17.1211503"><ele>417.0</ele><time>2026-03-23T10:02:10.645Z</time></trkpt><trkpt lat="40.7972977" lon="17.1210875"><ele>417.0</ele><time>2026-03-23T10:02:21.66Z</time></trkpt><trkpt lat="40.797343" lon="17.1210139"><ele>417.0</ele><time>2026-03-23T10:02:24.659Z</time></trkpt><trkpt lat="40.7973029" lon="17.1209473"><ele>417.0</ele><time>2026-03-23T10:02:28.652Z</time></trkpt><trkpt lat="40.7973366" lon="17.1208636"><ele>417.0</ele><time>2026-03-23T10:02:31.633Z</time></trkpt><trkpt lat="40.7973991" lon="17.1207757"><ele>417.0</ele><time>2026-03-23T10:02:34.674Z</time></trkpt><trkpt lat="40.7974523" lon="17.1206923"><ele>417.0</ele><time>2026-03-23T10:02:37.642Z</time></trkpt><trkpt lat="40.7975008" lon="17.1206194"><ele>417.0</ele><time>2026-03-23T10:02:40.661Z</time></trkpt><trkpt lat="40.7975516" lon="17.1205629"><ele>417.0</ele><time>2026-03-23T10:02:43.656Z</time></trkpt><trkpt lat="40.7976021" lon="17.1205023"><ele>416.7142857142857</ele><time>2026-03-23T10:02:52.663Z</time></trkpt><trkpt lat="40.797651" lon="17.1204384"><ele>416.4285714285714</ele><time>2026-03-23T10:02:57.658Z</time></trkpt><trkpt lat="40.7976869" lon="17.1203549"><ele>416.1428571428571</ele><time>2026-03-23T10:03:00.663Z</time></trkpt><trkpt lat="40.7977589" lon="17.1203376"><ele>415.8571428571429</ele><time>2026-03-23T10:03:06.66Z</time></trkpt><trkpt lat="40.7978021" lon="17.120402"><ele>415.57142857142856</ele><time>2026-03-23T10:03:08.657Z</time></trkpt><trkpt lat="40.7978625" lon="17.1204722"><ele>415.2857142857143</ele><time>2026-03-23T10:03:11.649Z</time></trkpt><trkpt lat="40.7979441" lon="17.1204945"><ele>415.0</ele><time>2026-03-23T10:03:14.68Z</time></trkpt><trkpt lat="40.7979914" lon="17.1204075"><ele>415.00000000000006</ele><time>2026-03-23T10:03:17.667Z</time></trkpt><trkpt lat="40.7979325" lon="17.1203358"><ele>415.0</ele><time>2026-03-23T10:03:20.676Z</time></trkpt><trkpt lat="40.797861" lon="17.1203146"><ele>415.0</ele><time>2026-03-23T10:03:23.663Z</time></trkpt><trkpt lat="40.797796" lon="17.1202789"><ele>415.0</ele><time>2026-03-23T10:03:28.664Z</time></trkpt><trkpt lat="40.7977384" lon="17.1202057"><ele>415.00000000000006</ele><time>2026-03-23T10:03:31.691Z</time></trkpt><trkpt lat="40.797684" lon="17.1201392"><ele>415.0</ele><time>2026-03-23T10:03:33.67Z</time></trkpt><trkpt lat="40.7976225" lon="17.1200649"><ele>415.00000000000006</ele><time>2026-03-23T10:03:35.655Z</time></trkpt><trkpt lat="40.7975526" lon="17.1200027"><ele>415.0</ele><time>2026-03-23T10:03:37.662Z</time></trkpt><trkpt lat="40.7974919" lon="17.1199362"><ele>415.0</ele><time>2026-03-23T10:03:39.656Z</time></trkpt><trkpt lat="40.7974338" lon="17.1198742"><ele>415.0</ele><time>2026-03-23T10:03:41.657Z</time></trkpt><trkpt lat="40.7973687" lon="17.1198126"><ele>415.00000000000006</ele><time>2026-03-23T10:03:43.65Z</time></trkpt><trkpt lat="40.7973021" lon="17.1197554"><ele>415.0</ele><time>2026-03-23T10:03:45.651Z</time></trkpt><trkpt lat="40.7972318" lon="17.1197174"><ele>414.83333333333337</ele><time>2026-03-23T10:03:47.659Z</time></trkpt><trkpt lat="40.7971604" lon="17.1196583"><ele>414.6666666666667</ele><time>2026-03-23T10:03:49.664Z</time></trkpt><trkpt lat="40.7970849" lon="17.119615"><ele>414.5</ele><time>2026-03-23T10:03:51.653Z</time></trkpt><trkpt lat="40.7970152" lon="17.1195631"><ele>414.33333333333337</ele><time>2026-03-23T10:03:53.668Z</time></trkpt><trkpt lat="40.7969418" lon="17.1195087"><ele>414.1666666666667</ele><time>2026-03-23T10:03:55.648Z</time></trkpt><trkpt lat="40.7968754" lon="17.1194423"><ele>414.0</ele><time>2026-03-23T10:03:57.641Z</time></trkpt><trkpt lat="40.7968043" lon="17.1193735"><ele>413.8333333333333</ele><time>2026-03-23T10:03:59.648Z</time></trkpt><trkpt lat="40.7967359" lon="17.1192958"><ele>413.66666666666663</ele><time>2026-03-23T10:04:01.671Z</time></trkpt><trkpt lat="40.7966598" lon="17.1192223"><ele>413.5</ele><time>2026-03-23T10:04:03.708Z</time></trkpt><trkpt lat="40.7965906" lon="17.119151"><ele>413.3333333333333</ele><time>2026-03-23T10:04:05.638Z</time></trkpt><trkpt lat="40.7965165" lon="17.1190773"><ele>413.16666666666663</ele><time>2026-03-23T10:04:07.657Z</time></trkpt><trkpt lat="40.7964542" lon="17.119004"><ele>413.0</ele><time>2026-03-23T10:04:09.651Z</time></trkpt><trkpt lat="40.7963995" lon="17.1188938"><ele>412.0</ele><time>2026-03-23T10:04:11.656Z</time></trkpt><trkpt lat="40.7963254" lon="17.1187938"><ele>411.0</ele><time>2026-03-23T10:04:13.685Z</time></trkpt><trkpt lat="40.7962537" lon="17.1187152"><ele>410.0</ele><time>2026-03-23T10:04:15.649Z</time></trkpt><trkpt lat="40.7961813" lon="17.1186318"><ele>409.0</ele><time>2026-03-23T10:04:17.71Z</time></trkpt><trkpt lat="40.7961109" lon="17.1185712"><ele>408.0</ele><time>2026-03-23T10:04:19.682Z</time></trkpt><trkpt lat="40.7960264" lon="17.1185545"><ele>406.6666666666667</ele><time>2026-03-23T10:04:21.636Z</time></trkpt><trkpt lat="40.7959239" lon="17.1185424"><ele>405.33333333333337</ele><time>2026-03-23T10:04:23.674Z</time></trkpt><trkpt lat="40.7958149" lon="17.11858"><ele>404.0</ele><time>2026-03-23T10:04:25.684Z</time></trkpt><trkpt lat="40.7957544" lon="17.1186034"><ele>402.6666666666667</ele><time>2026-03-23T10:04:26.683Z</time></trkpt><trkpt lat="40.7956928" lon="17.1186288"><ele>401.33333333333337</ele><time>2026-03-23T10:04:27.681Z</time></trkpt><trkpt lat="40.7956305" lon="17.1186593"><ele>400.0</ele><time>2026-03-23T10:04:28.669Z</time></trkpt><trkpt lat="40.7955681" lon="17.1186874"><ele>400.0</ele><time>2026-03-23T10:04:29.662Z</time></trkpt><trkpt lat="40.7954579" lon="17.1187309"><ele>400.0</ele><time>2026-03-23T10:04:31.656Z</time></trkpt><trkpt lat="40.7953653" lon="17.1187725"><ele>400.0</ele><time>2026-03-23T10:04:33.667Z</time></trkpt><trkpt lat="40.7952632" lon="17.1187945"><ele>400.0</ele><time>2026-03-23T10:04:35.683Z</time></trkpt><trkpt lat="40.7951994" lon="17.1187828"><ele>400.0</ele><time>2026-03-23T10:04:36.688Z</time></trkpt><trkpt lat="40.795084" lon="17.1187723"><ele>398.0</ele><time>2026-03-23T10:04:38.674Z</time></trkpt><trkpt lat="40.7949694" lon="17.1187525"><ele>396.0</ele><time>2026-03-23T10:04:40.677Z</time></trkpt><trkpt lat="40.7948575" lon="17.1187159"><ele>394.0</ele><time>2026-03-23T10:04:42.685Z</time></trkpt><trkpt lat="40.7947559" lon="17.1186685"><ele>392.0</ele><time>2026-03-23T10:04:44.653Z</time></trkpt><trkpt lat="40.7946524" lon="17.1186157"><ele>392.0</ele><time>2026-03-23T10:04:46.672Z</time></trkpt><trkpt lat="40.7945447" lon="17.1185576"><ele>392.0</ele><time>2026-03-23T10:04:48.69Z</time></trkpt><trkpt lat="40.7944258" lon="17.1185209"><ele>392.0</ele><time>2026-03-23T10:04:50.681Z</time></trkpt><trkpt lat="40.7943625" lon="17.1185072"><ele>392.0</ele><time>2026-03-23T10:04:51.696Z</time></trkpt><trkpt lat="40.7942398" lon="17.118505"><ele>392.0</ele><time>2026-03-23T10:04:53.691Z</time></trkpt><trkpt lat="40.794124" lon="17.1185595"><ele>390.66666666666663</ele><time>2026-03-23T10:04:55.665Z</time></trkpt><trkpt lat="40.7940148" lon="17.1186549"><ele>389.3333333333333</ele><time>2026-03-23T10:04:57.674Z</time></trkpt><trkpt lat="40.7939602" lon="17.1187053"><ele>388.0</ele><time>2026-03-23T10:04:58.661Z</time></trkpt><trkpt lat="40.7939092" lon="17.1187563"><ele>386.66666666666663</ele><time>2026-03-23T10:04:59.677Z</time></trkpt><trkpt lat="40.7938566" lon="17.1188082"><ele>385.3333333333333</ele><time>2026-03-23T10:05:00.648Z</time></trkpt><trkpt lat="40.7938017" lon="17.1188598"><ele>384.0</ele><time>2026-03-23T10:05:01.681Z</time></trkpt><trkpt lat="40.7937481" lon="17.1189082"><ele>383.99999999999994</ele><time>2026-03-23T10:05:02.681Z</time></trkpt><trkpt lat="40.7936925" lon="17.1189597"><ele>384.0</ele><time>2026-03-23T10:05:03.681Z</time></trkpt><trkpt lat="40.7936359" lon="17.119012"><ele>384.0</ele><time>2026-03-23T10:05:04.681Z</time></trkpt><trkpt lat="40.7935798" lon="17.1190658"><ele>384.0</ele><time>2026-03-23T10:05:05.68Z</time></trkpt><trkpt lat="40.7935194" lon="17.1191142"><ele>384.0</ele><time>2026-03-23T10:05:06.68Z</time></trkpt><trkpt lat="40.7934555" lon="17.1191557"><ele>383.99999999999994</ele><time>2026-03-23T10:05:07.668Z</time></trkpt><trkpt lat="40.7933899" lon="17.1191934"><ele>384.0</ele><time>2026-03-23T10:05:08.635Z</time></trkpt><trkpt lat="40.793281" lon="17.1192492"><ele>384.0</ele><time>2026-03-23T10:05:10.653Z</time></trkpt><trkpt lat="40.7931828" lon="17.1193054"><ele>384.0</ele><time>2026-03-23T10:05:12.671Z</time></trkpt><trkpt lat="40.793098" lon="17.1193514"><ele>384.0</ele><time>2026-03-23T10:05:14.679Z</time></trkpt><trkpt lat="40.7930276" lon="17.1193584"><ele>384.0</ele><time>2026-03-23T10:05:16.673Z</time></trkpt><trkpt lat="40.7929791" lon="17.1192938"><ele>384.0</ele><time>2026-03-23T10:05:18.674Z</time></trkpt><trkpt lat="40.7929542" lon="17.1191644"><ele>384.0</ele><time>2026-03-23T10:05:20.68Z</time></trkpt><trkpt lat="40.7929282" lon="17.1190348"><ele>383.0</ele><time>2026-03-23T10:05:22.691Z</time></trkpt><trkpt lat="40.7928903" lon="17.1189025"><ele>382.0</ele><time>2026-03-23T10:05:24.67Z</time></trkpt><trkpt lat="40.7928473" lon="17.1187617"><ele>381.0</ele><time>2026-03-23T10:05:26.678Z</time></trkpt><trkpt lat="40.7928001" lon="17.1186201"><ele>380.0</ele><time>2026-03-23T10:05:28.677Z</time></trkpt><trkpt lat="40.7927718" lon="17.1185445"><ele>379.0</ele><time>2026-03-23T10:05:29.698Z</time></trkpt><trkpt lat="40.7927178" lon="17.1184029"><ele>378.5</ele><time>2026-03-23T10:05:31.689Z</time></trkpt><trkpt lat="40.7926628" lon="17.1182602"><ele>378.0</ele><time>2026-03-23T10:05:33.696Z</time></trkpt><trkpt lat="40.7926065" lon="17.1181115"><ele>377.5</ele><time>2026-03-23T10:05:35.664Z</time></trkpt><trkpt lat="40.7925765" lon="17.1180371"><ele>377.0</ele><time>2026-03-23T10:05:36.707Z</time></trkpt><trkpt lat="40.7925481" lon="17.1179566"><ele>376.5</ele><time>2026-03-23T10:05:37.678Z</time></trkpt><trkpt lat="40.7925203" lon="17.1178734"><ele>376.0</ele><time>2026-03-23T10:05:38.688Z</time></trkpt><trkpt lat="40.7924931" lon="17.1177935"><ele>375.85714285714283</ele><time>2026-03-23T10:05:39.684Z</time></trkpt><trkpt lat="40.7924665" lon="17.1177147"><ele>375.71428571428567</ele><time>2026-03-23T10:05:40.688Z</time></trkpt><trkpt lat="40.7924388" lon="17.1176315"><ele>375.57142857142856</ele><time>2026-03-23T10:05:41.675Z</time></trkpt><trkpt lat="40.7924125" lon="17.1175426"><ele>375.42857142857144</ele><time>2026-03-23T10:05:42.682Z</time></trkpt><trkpt lat="40.7923955" lon="17.1174556"><ele>375.2857142857143</ele><time>2026-03-23T10:05:43.696Z</time></trkpt><trkpt lat="40.7923779" lon="17.1173696"><ele>375.14285714285717</ele><time>2026-03-23T10:05:44.69Z</time></trkpt><trkpt lat="40.7923494" lon="17.1172444"><ele>375.0</ele><time>2026-03-23T10:05:46.69Z</time></trkpt><trkpt lat="40.7923408" lon="17.1171513"><ele>374.8333333333333</ele><time>2026-03-23T10:05:49.684Z</time></trkpt><trkpt lat="40.7923116" lon="17.1170757"><ele>374.6666666666667</ele><time>2026-03-23T10:05:52.658Z</time></trkpt><trkpt lat="40.7922786" lon="17.1169799"><ele>374.5</ele><time>2026-03-23T10:05:55.676Z</time></trkpt><trkpt lat="40.7922642" lon="17.1168833"><ele>374.33333333333337</ele><time>2026-03-23T10:05:57.683Z</time></trkpt><trkpt lat="40.7922528" lon="17.1167737"><ele>374.1666666666667</ele><time>2026-03-23T10:05:59.662Z</time></trkpt><trkpt lat="40.7922326" lon="17.1166693"><ele>374.0</ele><time>2026-03-23T10:06:01.694Z</time></trkpt><trkpt lat="40.7922226" lon="17.116563"><ele>373.83333333333337</ele><time>2026-03-23T10:06:03.651Z</time></trkpt><trkpt lat="40.7922125" lon="17.1164477"><ele>373.6666666666667</ele><time>2026-03-23T10:06:05.671Z</time></trkpt><trkpt lat="40.7922018" lon="17.1163325"><ele>373.5</ele><time>2026-03-23T10:06:07.682Z</time></trkpt><trkpt lat="40.7921906" lon="17.1162174"><ele>373.3333333333333</ele><time>2026-03-23T10:06:09.683Z</time></trkpt><trkpt lat="40.7921848" lon="17.1161044"><ele>373.16666666666663</ele><time>2026-03-23T10:06:11.665Z</time></trkpt><trkpt lat="40.7921789" lon="17.1160017"><ele>373.0</ele><time>2026-03-23T10:06:13.662Z</time></trkpt><trkpt lat="40.7921838" lon="17.1158946"><ele>373.0</ele><time>2026-03-23T10:06:15.664Z</time></trkpt><trkpt lat="40.7921853" lon="17.1157908"><ele>373.0</ele><time>2026-03-23T10:06:17.677Z</time></trkpt><trkpt lat="40.7921811" lon="17.1156806"><ele>373.0</ele><time>2026-03-23T10:06:19.673Z</time></trkpt><trkpt lat="40.7921801" lon="17.1155778"><ele>373.0</ele><time>2026-03-23T10:06:21.681Z</time></trkpt><trkpt lat="40.7921765" lon="17.1154743"><ele>373.0</ele><time>2026-03-23T10:06:23.665Z</time></trkpt><trkpt lat="40.7921672" lon="17.1153823"><ele>373.0</ele><time>2026-03-23T10:06:25.65Z</time></trkpt><trkpt lat="40.7921693" lon="17.1152884"><ele>372.8571428571429</ele><time>2026-03-23T10:06:27.676Z</time></trkpt><trkpt lat="40.7921738" lon="17.115201"><ele>372.7142857142857</ele><time>2026-03-23T10:06:29.667Z</time></trkpt><trkpt lat="40.7921822" lon="17.1150823"><ele>372.57142857142856</ele><time>2026-03-23T10:06:32.674Z</time></trkpt><trkpt lat="40.7921829" lon="17.1149934"><ele>372.42857142857144</ele><time>2026-03-23T10:06:34.693Z</time></trkpt><trkpt lat="40.7921932" lon="17.1149062"><ele>372.2857142857143</ele><time>2026-03-23T10:06:36.679Z</time></trkpt><trkpt lat="40.7922015" lon="17.1148149"><ele>372.14285714285717</ele><time>2026-03-23T10:06:38.678Z</time></trkpt><trkpt lat="40.7922155" lon="17.1147146"><ele>372.0</ele><time>2026-03-23T10:06:40.715Z</time></trkpt><trkpt lat="40.7922242" lon="17.1146147"><ele>371.40000000000003</ele><time>2026-03-23T10:06:42.661Z</time></trkpt><trkpt lat="40.7922414" lon="17.1145189"><ele>370.8</ele><time>2026-03-23T10:06:44.664Z</time></trkpt><trkpt lat="40.792261" lon="17.1144105"><ele>370.2</ele><time>2026-03-23T10:06:46.69Z</time></trkpt><trkpt lat="40.7922823" lon="17.1142921"><ele>369.6</ele><time>2026-03-23T10:06:48.682Z</time></trkpt><trkpt lat="40.7922959" lon="17.1141619"><ele>369.0</ele><time>2026-03-23T10:06:50.677Z</time></trkpt><trkpt lat="40.7923158" lon="17.1140243"><ele>368.75</ele><time>2026-03-23T10:06:52.701Z</time></trkpt><trkpt lat="40.7923368" lon="17.1138794"><ele>368.5</ele><time>2026-03-23T10:06:54.669Z</time></trkpt><trkpt lat="40.7923562" lon="17.1137298"><ele>368.25</ele><time>2026-03-23T10:06:56.68Z</time></trkpt><trkpt lat="40.7923636" lon="17.1135692"><ele>368.0</ele><time>2026-03-23T10:06:58.693Z</time></trkpt><trkpt lat="40.7923622" lon="17.1134225"><ele>368.0</ele><time>2026-03-23T10:07:00.695Z</time></trkpt><trkpt lat="40.7923607" lon="17.1132818"><ele>368.0</ele><time>2026-03-23T10:07:02.687Z</time></trkpt><trkpt lat="40.7923528" lon="17.11316"><ele>368.0</ele><time>2026-03-23T10:07:04.681Z</time></trkpt><trkpt lat="40.7923468" lon="17.1130444"><ele>368.0</ele><time>2026-03-23T10:07:06.65Z</time></trkpt><trkpt lat="40.7923366" lon="17.112944"><ele>368.0</ele><time>2026-03-23T10:07:08.675Z</time></trkpt><trkpt lat="40.7923295" lon="17.1128304"><ele>368.5</ele><time>2026-03-23T10:07:11.663Z</time></trkpt><trkpt lat="40.7923235" lon="17.1127172"><ele>369.0</ele><time>2026-03-23T10:07:14.682Z</time></trkpt><trkpt lat="40.7923184" lon="17.1125993"><ele>369.5</ele><time>2026-03-23T10:07:17.685Z</time></trkpt><trkpt lat="40.792305" lon="17.1124909"><ele>370.0</ele><time>2026-03-23T10:07:20.668Z</time></trkpt><trkpt lat="40.7922844" lon="17.1123772"><ele>370.5</ele><time>2026-03-23T10:07:23.676Z</time></trkpt><trkpt lat="40.7922604" lon="17.1122637"><ele>371.0</ele><time>2026-03-23T10:07:26.665Z</time></trkpt><trkpt lat="40.7922402" lon="17.1121542"><ele>371.33333333333337</ele><time>2026-03-23T10:07:29.675Z</time></trkpt><trkpt lat="40.7922127" lon="17.1120447"><ele>371.6666666666667</ele><time>2026-03-23T10:07:32.657Z</time></trkpt><trkpt lat="40.7921865" lon="17.1119334"><ele>372.0</ele><time>2026-03-23T10:07:35.664Z</time></trkpt><trkpt lat="40.7921543" lon="17.1118257"><ele>372.3333333333333</ele><time>2026-03-23T10:07:38.669Z</time></trkpt><trkpt lat="40.7921146" lon="17.1117227"><ele>372.66666666666663</ele><time>2026-03-23T10:07:41.655Z</time></trkpt><trkpt lat="40.7920758" lon="17.1116236"><ele>373.0</ele><time>2026-03-23T10:07:44.668Z</time></trkpt><trkpt lat="40.7920352" lon="17.1115226"><ele>373.16666666666663</ele><time>2026-03-23T10:07:47.695Z</time></trkpt><trkpt lat="40.7919983" lon="17.1114241"><ele>373.3333333333333</ele><time>2026-03-23T10:07:50.684Z</time></trkpt><trkpt lat="40.7919576" lon="17.1113135"><ele>373.5</ele><time>2026-03-23T10:07:53.688Z</time></trkpt><trkpt lat="40.7919213" lon="17.1112092"><ele>373.6666666666667</ele><time>2026-03-23T10:07:56.672Z</time></trkpt><trkpt lat="40.7918825" lon="17.1110931"><ele>373.83333333333337</ele><time>2026-03-23T10:07:59.675Z</time></trkpt><trkpt lat="40.7918545" lon="17.1109999"><ele>374.0</ele><time>2026-03-23T10:08:02.633Z</time></trkpt><trkpt lat="40.7918166" lon="17.1109006"><ele>374.0</ele><time>2026-03-23T10:08:05.651Z</time></trkpt><trkpt lat="40.791783" lon="17.1107915"><ele>374.0</ele><time>2026-03-23T10:08:08.673Z</time></trkpt><trkpt lat="40.7917488" lon="17.1106853"><ele>374.0</ele><time>2026-03-23T10:08:11.627Z</time></trkpt><trkpt lat="40.7917192" lon="17.1105819"><ele>374.0</ele><time>2026-03-23T10:08:14.683Z</time></trkpt><trkpt lat="40.7916908" lon="17.1105068"><ele>374.0</ele><time>2026-03-23T10:08:17.669Z</time></trkpt><trkpt lat="40.7916524" lon="17.110426"><ele>374.0</ele><time>2026-03-23T10:08:20.686Z</time></trkpt><trkpt lat="40.7916176" lon="17.1103518"><ele>374.0</ele><time>2026-03-23T10:08:23.62Z</time></trkpt><trkpt lat="40.7915729" lon="17.1102761"><ele>374.0</ele><time>2026-03-23T10:08:26.619Z</time></trkpt><trkpt lat="40.7915384" lon="17.110205"><ele>374.0</ele><time>2026-03-23T10:08:29.618Z</time></trkpt><trkpt lat="40.7914963" lon="17.1101334"><ele>374.0</ele><time>2026-03-23T10:08:31.637Z</time></trkpt><trkpt lat="40.7914554" lon="17.1100557"><ele>374.0</ele><time>2026-03-23T10:08:33.631Z</time></trkpt><trkpt lat="40.7914056" lon="17.1099741"><ele>374.0</ele><time>2026-03-23T10:08:35.665Z</time></trkpt><trkpt lat="40.7913431" lon="17.1098641"><ele>373.5</ele><time>2026-03-23T10:08:37.681Z</time></trkpt><trkpt lat="40.7912837" lon="17.1097166"><ele>373.0</ele><time>2026-03-23T10:08:39.616Z</time></trkpt><trkpt lat="40.7912547" lon="17.109629"><ele>372.5</ele><time>2026-03-23T10:08:40.668Z</time></trkpt><trkpt lat="40.791223" lon="17.1095355"><ele>372.0</ele><time>2026-03-23T10:08:41.662Z</time></trkpt><trkpt lat="40.7911924" lon="17.109438"><ele>371.5</ele><time>2026-03-23T10:08:42.691Z</time></trkpt><trkpt lat="40.7911604" lon="17.1093368"><ele>371.0</ele><time>2026-03-23T10:08:43.672Z</time></trkpt><trkpt lat="40.7911241" lon="17.1092247"><ele>371.0</ele><time>2026-03-23T10:08:44.688Z</time></trkpt><trkpt lat="40.7910928" lon="17.1091076"><ele>371.0</ele><time>2026-03-23T10:08:45.698Z</time></trkpt><trkpt lat="40.7910701" lon="17.108993"><ele>371.0</ele><time>2026-03-23T10:08:46.683Z</time></trkpt><trkpt lat="40.7910535" lon="17.1088813"><ele>371.0</ele><time>2026-03-23T10:08:47.682Z</time></trkpt><trkpt lat="40.7910404" lon="17.1087725"><ele>371.0</ele><time>2026-03-23T10:08:48.642Z</time></trkpt><trkpt lat="40.7910243" lon="17.1086702"><ele>371.0</ele><time>2026-03-23T10:08:49.687Z</time></trkpt><trkpt lat="40.7910057" lon="17.1085798"><ele>370.6</ele><time>2026-03-23T10:08:50.68Z</time></trkpt><trkpt lat="40.790958" lon="17.1084276"><ele>370.20000000000005</ele><time>2026-03-23T10:08:52.701Z</time></trkpt><trkpt lat="40.7909108" lon="17.1082927"><ele>369.79999999999995</ele><time>2026-03-23T10:08:54.677Z</time></trkpt><trkpt lat="40.7908727" lon="17.1081947"><ele>369.4</ele><time>2026-03-23T10:08:56.665Z</time></trkpt><trkpt lat="40.7908352" lon="17.1080981"><ele>369.0</ele><time>2026-03-23T10:08:59.652Z</time></trkpt><trkpt lat="40.7907905" lon="17.107998"><ele>369.0</ele><time>2026-03-23T10:09:02.656Z</time></trkpt><trkpt lat="40.7907549" lon="17.1078945"><ele>369.0</ele><time>2026-03-23T10:09:05.693Z</time></trkpt><trkpt lat="40.7907282" lon="17.1077903"><ele>369.0</ele><time>2026-03-23T10:09:08.665Z</time></trkpt><trkpt lat="40.7906954" lon="17.1076982"><ele>369.0</ele><time>2026-03-23T10:09:11.659Z</time></trkpt><trkpt lat="40.7906763" lon="17.1076069"><ele>369.0</ele><time>2026-03-23T10:09:15.677Z</time></trkpt><trkpt lat="40.7906037" lon="17.1075313"><ele>369.0</ele><time>2026-03-23T10:09:18.687Z</time></trkpt><trkpt lat="40.7905346" lon="17.1074566"><ele>369.57142857142856</ele><time>2026-03-23T10:09:21.651Z</time></trkpt><trkpt lat="40.7904792" lon="17.107378"><ele>370.1428571428571</ele><time>2026-03-23T10:09:24.666Z</time></trkpt><trkpt lat="40.7904372" lon="17.1072885"><ele>370.7142857142857</ele><time>2026-03-23T10:09:27.672Z</time></trkpt><trkpt lat="40.7904479" lon="17.1072019"><ele>371.2857142857143</ele><time>2026-03-23T10:09:31.678Z</time></trkpt><trkpt lat="40.7904073" lon="17.107266"><ele>371.8571428571429</ele><time>2026-03-23T10:10:22.639Z</time></trkpt><trkpt lat="40.7903921" lon="17.1073559"><ele>372.42857142857144</ele><time>2026-03-23T10:10:27.637Z</time></trkpt><trkpt lat="40.7904444" lon="17.1072768"><ele>373.0</ele><time>2026-03-23T10:10:45.65Z</time></trkpt><trkpt lat="40.7903957" lon="17.1073505"><ele>373.0</ele><time>2026-03-23T10:10:56.651Z</time></trkpt><trkpt lat="40.7904394" lon="17.1072824"><ele>373.0</ele><time>2026-03-23T10:11:07.662Z</time></trkpt><trkpt lat="40.7903894" lon="17.1073656"><ele>373.0</ele><time>2026-03-23T10:11:19.641Z</time></trkpt><trkpt lat="40.7904324" lon="17.1072345"><ele>373.0</ele><time>2026-03-23T10:11:33.649Z</time></trkpt><trkpt lat="40.7904852" lon="17.1071584"><ele>373.0</ele><time>2026-03-23T10:11:37.658Z</time></trkpt><trkpt lat="40.7905393" lon="17.1070753"><ele>373.0</ele><time>2026-03-23T10:11:40.649Z</time></trkpt><trkpt lat="40.7905921" lon="17.1069953"><ele>373.0</ele><time>2026-03-23T10:11:43.614Z</time></trkpt><trkpt lat="40.7906423" lon="17.1069066"><ele>373.0</ele><time>2026-03-23T10:11:46.629Z</time></trkpt><trkpt lat="40.7906905" lon="17.1068519"><ele>373.0</ele><time>2026-03-23T10:11:49.643Z</time></trkpt><trkpt lat="40.7907609" lon="17.1068572"><ele>373.0</ele><time>2026-03-23T10:11:53.661Z</time></trkpt><trkpt lat="40.7907394" lon="17.1067706"><ele>373.0</ele><time>2026-03-23T10:12:58.638Z</time></trkpt><trkpt lat="40.7907526" lon="17.1066712"><ele>373.0</ele><time>2026-03-23T10:13:03.636Z</time></trkpt><trkpt lat="40.7907537" lon="17.1065701"><ele>373.0</ele><time>2026-03-23T10:13:07.671Z</time></trkpt><trkpt lat="40.7908017" lon="17.1065019"><ele>373.0</ele><time>2026-03-23T10:13:11.655Z</time></trkpt><trkpt lat="40.7908502" lon="17.1064268"><ele>373.0</ele><time>2026-03-23T10:13:16.643Z</time></trkpt><trkpt lat="40.7908019" lon="17.1064885"><ele>373.0</ele><time>2026-03-23T10:13:26.649Z</time></trkpt><trkpt lat="40.7907486" lon="17.106542"><ele>373.0</ele><time>2026-03-23T10:13:30.653Z</time></trkpt><trkpt lat="40.7907505" lon="17.1066411"><ele>373.0</ele><time>2026-03-23T10:13:34.662Z</time></trkpt><trkpt lat="40.7907271" lon="17.1067254"><ele>373.0</ele><time>2026-03-23T10:13:39.65Z</time></trkpt><trkpt lat="40.7906909" lon="17.1068203"><ele>373.0</ele><time>2026-03-23T10:13:46.655Z</time></trkpt><trkpt lat="40.7907262" lon="17.1069086"><ele>373.0</ele><time>2026-03-23T10:13:51.669Z</time></trkpt><trkpt lat="40.7907495" lon="17.1068291"><ele>373.0</ele><time>2026-03-23T10:13:58.647Z</time></trkpt><trkpt lat="40.7907359" lon="17.1067452"><ele>373.0</ele><time>2026-03-23T10:14:02.656Z</time></trkpt><trkpt lat="40.7907498" lon="17.1066503"><ele>373.0</ele><time>2026-03-23T10:14:06.634Z</time></trkpt><trkpt lat="40.7907674" lon="17.1065508"><ele>373.0</ele><time>2026-03-23T10:14:10.626Z</time></trkpt><trkpt lat="40.7908163" lon="17.1064933"><ele>373.0</ele><time>2026-03-23T10:14:14.66Z</time></trkpt><trkpt lat="40.7908866" lon="17.106473"><ele>373.0</ele><time>2026-03-23T10:14:18.643Z</time></trkpt><trkpt lat="40.7908162" lon="17.1064555"><ele>373.0</ele><time>2026-03-23T10:14:28.644Z</time></trkpt><trkpt lat="40.7907646" lon="17.106524"><ele>373.0</ele><time>2026-03-23T10:14:32.661Z</time></trkpt><trkpt lat="40.7907496" lon="17.1066093"><ele>373.0</ele><time>2026-03-23T10:14:36.658Z</time></trkpt><trkpt lat="40.7907324" lon="17.1067005"><ele>373.0</ele><time>2026-03-23T10:14:41.653Z</time></trkpt><trkpt lat="40.7906928" lon="17.1067888"><ele>373.0</ele><time>2026-03-23T10:14:45.632Z</time></trkpt><trkpt lat="40.7906539" lon="17.1068642"><ele>373.0</ele><time>2026-03-23T10:14:49.66Z</time></trkpt><trkpt lat="40.7905985" lon="17.1069336"><ele>373.0</ele><time>2026-03-23T10:14:54.663Z</time></trkpt><trkpt lat="40.7906485" lon="17.1068822"><ele>373.0</ele><time>2026-03-23T10:15:02.633Z</time></trkpt><trkpt lat="40.7906923" lon="17.106817"><ele>373.0</ele><time>2026-03-23T10:15:06.655Z</time></trkpt><trkpt lat="40.7907353" lon="17.106737"><ele>373.0</ele><time>2026-03-23T10:15:10.663Z</time></trkpt><trkpt lat="40.7907606" lon="17.1066383"><ele>373.0</ele><time>2026-03-23T10:15:14.657Z</time></trkpt><trkpt lat="40.7907887" lon="17.1065424"><ele>373.0</ele><time>2026-03-23T10:15:18.645Z</time></trkpt><trkpt lat="40.790843" lon="17.1064922"><ele>373.0</ele><time>2026-03-23T10:15:22.657Z</time></trkpt><trkpt lat="40.790912" lon="17.1064691"><ele>373.0</ele><time>2026-03-23T10:15:27.65Z</time></trkpt><trkpt lat="40.7908627" lon="17.1064074"><ele>373.0</ele><time>2026-03-23T10:15:34.653Z</time></trkpt><trkpt lat="40.7908047" lon="17.1064568"><ele>373.0</ele><time>2026-03-23T10:15:39.619Z</time></trkpt><trkpt lat="40.7907393" lon="17.1065097"><ele>373.0</ele><time>2026-03-23T10:15:44.643Z</time></trkpt><trkpt lat="40.7907332" lon="17.1065947"><ele>373.0</ele><time>2026-03-23T10:15:49.637Z</time></trkpt><trkpt lat="40.7907516" lon="17.106675"><ele>373.0</ele><time>2026-03-23T10:15:53.633Z</time></trkpt><trkpt lat="40.7907769" lon="17.1065945"><ele>373.0</ele><time>2026-03-23T10:15:58.632Z</time></trkpt><trkpt lat="40.7907956" lon="17.1065018"><ele>373.0</ele><time>2026-03-23T10:16:03.689Z</time></trkpt><trkpt lat="40.7908622" lon="17.106468"><ele>372.0</ele><time>2026-03-23T10:16:09.655Z</time></trkpt><trkpt lat="40.7907944" lon="17.1064694"><ele>372.0</ele><time>2026-03-23T10:16:20.643Z</time></trkpt><trkpt lat="40.7907444" lon="17.106557"><ele>372.0</ele><time>2026-03-23T10:16:24.628Z</time></trkpt><trkpt lat="40.7907761" lon="17.1066388"><ele>373.0</ele><time>2026-03-23T10:16:28.627Z</time></trkpt><trkpt lat="40.7908185" lon="17.106576"><ele>372.0</ele><time>2026-03-23T10:16:32.634Z</time></trkpt><trkpt lat="40.7908584" lon="17.1064989"><ele>372.0</ele><time>2026-03-23T10:16:36.63Z</time></trkpt><trkpt lat="40.7908584" lon="17.1064989"><ele>372.0</ele><time>2026-03-23T10:16:36.63Z</time></trkpt></trkseg></trk></gpx>